<?xml version="1.0" encoding="UTF-8" standalone="no" ?>
<gpx xmlns="http://www.topografix.com/GPX/1/1" xmlns:xsi="http://www.w3.org/2001/XMLSchema-instance" xsi:schemaLocation="http://www.topografix.com/GPX/1/1 http://www.topografix.com/GPX/1/1/gpx.xsd" version="1.1" creator="VisuGPX - https://www.visugpx.com">
  <metadata>
    <name>Vers le lac de l\'Ecureuil (suite)</name>
    <desc><![CDATA[
Longueur    15km   	Dénivelé    640 m  Niveau : moyen  

Parking   :   Nationale 7   pont Saint Jean à la   limite du Var et Alpes Maritime en direction de Mandelieu

Ne pas traverser ce pont, et prendre la piste à gauche 

-     Vallon des 3 termes   sur 2 km 5 sous une tonnelle de verdure 

-Arrivé au col des 3 termes  -  suivre la route qui vous mène vers le col de la Cadière


-Quitter cette route après 650 m et prendre un chemin descendant à votre droite en direction du lac de l%u2019Ecureuil par le col des Replats. 


-Poursuivre jusqu%u2019au lac.   (Attention il est vide cause travaux sur la digue)


-La remontée se fera par le ravin des 3 termes jusqu%u2019au col du même nom.


-De là, prendre la piste à gauche qui mène à la fontaine du Marsaou puis au  lac de la Charbonnière


-Suivre la rivière par le vallon saint Jean  qui ramène au parking .
]]></desc>
  </metadata>
  <wpt lat="43.49379" lon="6.88224">
    <ele>139</ele>
  </wpt>
  <wpt lat="43.52296" lon="6.89531">
    <ele>43</ele>
  </wpt>
  <trk>
    <name><![CDATA[Vers le lac de l\'Ecureuil (suite)_1]]></name>
    <trkseg>
      <trkpt lat="43.49379" lon="6.88224">
        <ele>139</ele>
        <time>2011-03-21T11:20:15Z</time>
      </trkpt>
      <trkpt lat="43.4937" lon="6.88219">
        <ele>139</ele>
        <time>2011-03-21T11:20:35Z</time>
      </trkpt>
      <trkpt lat="43.49379" lon="6.88224">
        <ele>134</ele>
        <time>2011-03-21T11:21:10Z</time>
      </trkpt>
      <trkpt lat="43.4937" lon="6.88219">
        <ele>134</ele>
        <time>2011-03-21T11:21:18Z</time>
      </trkpt>
      <trkpt lat="43.4937" lon="6.88232">
        <ele>134</ele>
        <time>2011-03-21T11:21:35Z</time>
      </trkpt>
      <trkpt lat="43.49375" lon="6.88243">
        <ele>134</ele>
        <time>2011-03-21T11:21:44Z</time>
      </trkpt>
      <trkpt lat="43.49383" lon="6.88249">
        <ele>127</ele>
        <time>2011-03-21T11:21:51Z</time>
      </trkpt>
      <trkpt lat="43.49392" lon="6.88245">
        <ele>127</ele>
        <time>2011-03-21T11:22:22Z</time>
      </trkpt>
      <trkpt lat="43.49401" lon="6.88248">
        <ele>127</ele>
        <time>2011-03-21T11:23:40Z</time>
      </trkpt>
      <trkpt lat="43.49408" lon="6.88256">
        <ele>127</ele>
        <time>2011-03-21T11:23:55Z</time>
      </trkpt>
      <trkpt lat="43.49417" lon="6.8826">
        <ele>127</ele>
        <time>2011-03-21T11:24:08Z</time>
      </trkpt>
      <trkpt lat="43.49426" lon="6.8826">
        <ele>127</ele>
        <time>2011-03-21T11:24:19Z</time>
      </trkpt>
      <trkpt lat="43.49434" lon="6.88265">
        <ele>127</ele>
        <time>2011-03-21T11:24:31Z</time>
      </trkpt>
      <trkpt lat="43.49441" lon="6.88274">
        <ele>135</ele>
        <time>2011-03-21T11:24:45Z</time>
      </trkpt>
      <trkpt lat="43.4945" lon="6.8828">
        <ele>135</ele>
        <time>2011-03-21T11:24:57Z</time>
      </trkpt>
      <trkpt lat="43.49459" lon="6.88277">
        <ele>143</ele>
        <time>2011-03-21T11:25:12Z</time>
      </trkpt>
      <trkpt lat="43.49468" lon="6.88271">
        <ele>143</ele>
        <time>2011-03-21T11:25:26Z</time>
      </trkpt>
      <trkpt lat="43.49477" lon="6.8827">
        <ele>143</ele>
        <time>2011-03-21T11:25:37Z</time>
      </trkpt>
      <trkpt lat="43.49486" lon="6.88274">
        <ele>143</ele>
        <time>2011-03-21T11:25:50Z</time>
      </trkpt>
      <trkpt lat="43.49495" lon="6.88278">
        <ele>143</ele>
        <time>2011-03-21T11:26:02Z</time>
      </trkpt>
      <trkpt lat="43.49503" lon="6.88284">
        <ele>143</ele>
        <time>2011-03-21T11:26:19Z</time>
      </trkpt>
      <trkpt lat="43.49511" lon="6.88292">
        <ele>154</ele>
        <time>2011-03-21T11:26:41Z</time>
      </trkpt>
      <trkpt lat="43.49521" lon="6.88296">
        <ele>154</ele>
        <time>2011-03-21T11:26:50Z</time>
      </trkpt>
      <trkpt lat="43.49529" lon="6.88303">
        <ele>154</ele>
        <time>2011-03-21T11:27:02Z</time>
      </trkpt>
      <trkpt lat="43.49538" lon="6.88305">
        <ele>154</ele>
        <time>2011-03-21T11:27:17Z</time>
      </trkpt>
      <trkpt lat="43.49546" lon="6.88309">
        <ele>154</ele>
        <time>2011-03-21T11:27:34Z</time>
      </trkpt>
      <trkpt lat="43.49555" lon="6.8831">
        <ele>154</ele>
        <time>2011-03-21T11:27:42Z</time>
      </trkpt>
      <trkpt lat="43.49565" lon="6.88309">
        <ele>154</ele>
        <time>2011-03-21T11:27:54Z</time>
      </trkpt>
      <trkpt lat="43.49574" lon="6.88313">
        <ele>154</ele>
        <time>2011-03-21T11:28:03Z</time>
      </trkpt>
      <trkpt lat="43.49582" lon="6.88319">
        <ele>166</ele>
        <time>2011-03-21T11:28:20Z</time>
      </trkpt>
      <trkpt lat="43.49591" lon="6.88322">
        <ele>166</ele>
        <time>2011-03-21T11:28:36Z</time>
      </trkpt>
      <trkpt lat="43.49597" lon="6.88333">
        <ele>166</ele>
        <time>2011-03-21T11:28:46Z</time>
      </trkpt>
      <trkpt lat="43.49604" lon="6.8834">
        <ele>166</ele>
        <time>2011-03-21T11:29:00Z</time>
      </trkpt>
      <trkpt lat="43.49613" lon="6.88342">
        <ele>172</ele>
        <time>2011-03-21T11:29:14Z</time>
      </trkpt>
      <trkpt lat="43.49621" lon="6.88349">
        <ele>172</ele>
        <time>2011-03-21T11:29:29Z</time>
      </trkpt>
      <trkpt lat="43.49629" lon="6.88352">
        <ele>172</ele>
        <time>2011-03-21T11:29:38Z</time>
      </trkpt>
      <trkpt lat="43.49639" lon="6.88355">
        <ele>172</ele>
        <time>2011-03-21T11:29:52Z</time>
      </trkpt>
      <trkpt lat="43.49647" lon="6.88363">
        <ele>179</ele>
        <time>2011-03-21T11:30:07Z</time>
      </trkpt>
      <trkpt lat="43.49655" lon="6.88371">
        <ele>188</ele>
        <time>2011-03-21T11:30:22Z</time>
      </trkpt>
      <trkpt lat="43.49664" lon="6.88371">
        <ele>188</ele>
        <time>2011-03-21T11:30:35Z</time>
      </trkpt>
      <trkpt lat="43.49673" lon="6.88375">
        <ele>188</ele>
        <time>2011-03-21T11:30:46Z</time>
      </trkpt>
      <trkpt lat="43.49682" lon="6.88378">
        <ele>188</ele>
        <time>2011-03-21T11:31:01Z</time>
      </trkpt>
      <trkpt lat="43.49691" lon="6.88383">
        <ele>188</ele>
        <time>2011-03-21T11:31:13Z</time>
      </trkpt>
      <trkpt lat="43.49698" lon="6.88392">
        <ele>194</ele>
        <time>2011-03-21T11:31:31Z</time>
      </trkpt>
      <trkpt lat="43.49705" lon="6.88399">
        <ele>194</ele>
        <time>2011-03-21T11:31:41Z</time>
      </trkpt>
      <trkpt lat="43.49712" lon="6.88407">
        <ele>194</ele>
        <time>2011-03-21T11:31:54Z</time>
      </trkpt>
      <trkpt lat="43.4972" lon="6.88415">
        <ele>200</ele>
        <time>2011-03-21T11:32:14Z</time>
      </trkpt>
      <trkpt lat="43.49731" lon="6.88416">
        <ele>200</ele>
        <time>2011-03-21T11:32:20Z</time>
      </trkpt>
      <trkpt lat="43.49739" lon="6.8842">
        <ele>200</ele>
        <time>2011-03-21T11:32:31Z</time>
      </trkpt>
      <trkpt lat="43.49749" lon="6.88423">
        <ele>200</ele>
        <time>2011-03-21T11:32:45Z</time>
      </trkpt>
      <trkpt lat="43.49758" lon="6.88421">
        <ele>200</ele>
        <time>2011-03-21T11:32:58Z</time>
      </trkpt>
      <trkpt lat="43.49767" lon="6.88424">
        <ele>200</ele>
        <time>2011-03-21T11:33:14Z</time>
      </trkpt>
      <trkpt lat="43.49776" lon="6.88424">
        <ele>200</ele>
        <time>2011-03-21T11:33:33Z</time>
      </trkpt>
      <trkpt lat="43.49786" lon="6.88423">
        <ele>200</ele>
        <time>2011-03-21T11:33:44Z</time>
      </trkpt>
      <trkpt lat="43.49795" lon="6.88427">
        <ele>200</ele>
        <time>2011-03-21T11:34:00Z</time>
      </trkpt>
      <trkpt lat="43.49803" lon="6.88432">
        <ele>207</ele>
        <time>2011-03-21T11:34:18Z</time>
      </trkpt>
      <trkpt lat="43.49812" lon="6.88434">
        <ele>207</ele>
        <time>2011-03-21T11:34:30Z</time>
      </trkpt>
      <trkpt lat="43.4982" lon="6.8844">
        <ele>212</ele>
        <time>2011-03-21T11:34:43Z</time>
      </trkpt>
      <trkpt lat="43.49829" lon="6.88446">
        <ele>212</ele>
        <time>2011-03-21T11:35:00Z</time>
      </trkpt>
      <trkpt lat="43.49838" lon="6.88448">
        <ele>212</ele>
        <time>2011-03-21T11:35:09Z</time>
      </trkpt>
      <trkpt lat="43.49847" lon="6.88451">
        <ele>212</ele>
        <time>2011-03-21T11:35:20Z</time>
      </trkpt>
      <trkpt lat="43.49856" lon="6.88454">
        <ele>220</ele>
        <time>2011-03-21T11:36:11Z</time>
      </trkpt>
      <trkpt lat="43.49865" lon="6.88455">
        <ele>220</ele>
        <time>2011-03-21T11:36:22Z</time>
      </trkpt>
      <trkpt lat="43.49875" lon="6.88455">
        <ele>220</ele>
        <time>2011-03-21T11:36:37Z</time>
      </trkpt>
      <trkpt lat="43.49884" lon="6.88457">
        <ele>220</ele>
        <time>2011-03-21T11:36:49Z</time>
      </trkpt>
      <trkpt lat="43.49893" lon="6.88455">
        <ele>220</ele>
        <time>2011-03-21T11:37:04Z</time>
      </trkpt>
      <trkpt lat="43.49903" lon="6.88455">
        <ele>230</ele>
        <time>2011-03-21T11:37:16Z</time>
      </trkpt>
      <trkpt lat="43.49912" lon="6.88456">
        <ele>230</ele>
        <time>2011-03-21T11:37:32Z</time>
      </trkpt>
      <trkpt lat="43.4992" lon="6.88465">
        <ele>230</ele>
        <time>2011-03-21T11:37:46Z</time>
      </trkpt>
      <trkpt lat="43.49929" lon="6.88469">
        <ele>230</ele>
        <time>2011-03-21T11:38:00Z</time>
      </trkpt>
      <trkpt lat="43.49938" lon="6.88471">
        <ele>230</ele>
        <time>2011-03-21T11:38:13Z</time>
      </trkpt>
      <trkpt lat="43.49947" lon="6.88467">
        <ele>237</ele>
        <time>2011-03-21T11:38:28Z</time>
      </trkpt>
      <trkpt lat="43.49957" lon="6.88469">
        <ele>237</ele>
        <time>2011-03-21T11:38:45Z</time>
      </trkpt>
      <trkpt lat="43.49966" lon="6.88467">
        <ele>244</ele>
        <time>2011-03-21T11:39:02Z</time>
      </trkpt>
      <trkpt lat="43.49975" lon="6.88463">
        <ele>244</ele>
        <time>2011-03-21T11:39:20Z</time>
      </trkpt>
      <trkpt lat="43.49983" lon="6.88458">
        <ele>244</ele>
        <time>2011-03-21T11:39:34Z</time>
      </trkpt>
      <trkpt lat="43.4999" lon="6.8845">
        <ele>244</ele>
        <time>2011-03-21T11:39:44Z</time>
      </trkpt>
      <trkpt lat="43.49997" lon="6.88443">
        <ele>244</ele>
        <time>2011-03-21T11:39:56Z</time>
      </trkpt>
      <trkpt lat="43.50007" lon="6.8844">
        <ele>249</ele>
        <time>2011-03-21T11:40:10Z</time>
      </trkpt>
      <trkpt lat="43.50016" lon="6.88439">
        <ele>249</ele>
        <time>2011-03-21T11:40:41Z</time>
      </trkpt>
      <trkpt lat="43.50025" lon="6.88437">
        <ele>249</ele>
        <time>2011-03-21T11:40:59Z</time>
      </trkpt>
      <trkpt lat="43.50035" lon="6.88435">
        <ele>249</ele>
        <time>2011-03-21T11:41:20Z</time>
      </trkpt>
      <trkpt lat="43.50044" lon="6.88438">
        <ele>249</ele>
        <time>2011-03-21T11:41:29Z</time>
      </trkpt>
      <trkpt lat="43.50053" lon="6.88437">
        <ele>257</ele>
        <time>2011-03-21T11:41:42Z</time>
      </trkpt>
      <trkpt lat="43.50062" lon="6.88441">
        <ele>257</ele>
        <time>2011-03-21T11:41:51Z</time>
      </trkpt>
      <trkpt lat="43.5007" lon="6.88445">
        <ele>257</ele>
        <time>2011-03-21T11:42:10Z</time>
      </trkpt>
      <trkpt lat="43.50079" lon="6.8845">
        <ele>257</ele>
        <time>2011-03-21T11:42:28Z</time>
      </trkpt>
      <trkpt lat="43.50087" lon="6.88454">
        <ele>265</ele>
        <time>2011-03-21T11:42:36Z</time>
      </trkpt>
      <trkpt lat="43.50096" lon="6.8846">
        <ele>265</ele>
        <time>2011-03-21T11:42:53Z</time>
      </trkpt>
      <trkpt lat="43.50103" lon="6.88468">
        <ele>265</ele>
        <time>2011-03-21T11:43:05Z</time>
      </trkpt>
      <trkpt lat="43.50111" lon="6.88475">
        <ele>265</ele>
        <time>2011-03-21T11:43:17Z</time>
      </trkpt>
      <trkpt lat="43.50118" lon="6.88481">
        <ele>272</ele>
        <time>2011-03-21T11:43:25Z</time>
      </trkpt>
      <trkpt lat="43.50125" lon="6.88491">
        <ele>272</ele>
        <time>2011-03-21T11:43:39Z</time>
      </trkpt>
      <trkpt lat="43.50132" lon="6.88499">
        <ele>272</ele>
        <time>2011-03-21T11:43:49Z</time>
      </trkpt>
      <trkpt lat="43.5014" lon="6.88507">
        <ele>272</ele>
        <time>2011-03-21T11:44:06Z</time>
      </trkpt>
      <trkpt lat="43.50148" lon="6.88511">
        <ele>272</ele>
        <time>2011-03-21T11:44:15Z</time>
      </trkpt>
      <trkpt lat="43.50158" lon="6.88512">
        <ele>280</ele>
        <time>2011-03-21T11:44:39Z</time>
      </trkpt>
      <trkpt lat="43.50167" lon="6.8851">
        <ele>280</ele>
        <time>2011-03-21T11:44:56Z</time>
      </trkpt>
      <trkpt lat="43.50175" lon="6.88507">
        <ele>280</ele>
        <time>2011-03-21T11:45:12Z</time>
      </trkpt>
      <trkpt lat="43.50184" lon="6.88501">
        <ele>280</ele>
        <time>2011-03-21T11:45:34Z</time>
      </trkpt>
      <trkpt lat="43.50192" lon="6.88496">
        <ele>287</ele>
        <time>2011-03-21T11:45:53Z</time>
      </trkpt>
      <trkpt lat="43.50198" lon="6.88486">
        <ele>287</ele>
        <time>2011-03-21T11:46:19Z</time>
      </trkpt>
      <trkpt lat="43.50205" lon="6.88477">
        <ele>292</ele>
        <time>2011-03-21T11:46:42Z</time>
      </trkpt>
      <trkpt lat="43.50212" lon="6.88468">
        <ele>292</ele>
        <time>2011-03-21T11:47:04Z</time>
      </trkpt>
      <trkpt lat="43.50216" lon="6.88457">
        <ele>292</ele>
        <time>2011-03-21T11:47:22Z</time>
      </trkpt>
      <trkpt lat="43.50221" lon="6.88446">
        <ele>292</ele>
        <time>2011-03-21T11:47:39Z</time>
      </trkpt>
      <trkpt lat="43.50228" lon="6.88439">
        <ele>299</ele>
        <time>2011-03-21T11:48:13Z</time>
      </trkpt>
      <trkpt lat="43.50235" lon="6.88429">
        <ele>299</ele>
        <time>2011-03-21T11:48:36Z</time>
      </trkpt>
      <trkpt lat="43.50241" lon="6.88419">
        <ele>299</ele>
        <time>2011-03-21T11:49:02Z</time>
      </trkpt>
      <trkpt lat="43.50243" lon="6.88407">
        <ele>304</ele>
        <time>2011-03-21T11:49:15Z</time>
      </trkpt>
      <trkpt lat="43.50244" lon="6.88394">
        <ele>304</ele>
        <time>2011-03-21T11:49:36Z</time>
      </trkpt>
      <trkpt lat="43.50248" lon="6.88383">
        <ele>304</ele>
        <time>2011-03-21T11:49:45Z</time>
      </trkpt>
      <trkpt lat="43.50249" lon="6.8837">
        <ele>304</ele>
        <time>2011-03-21T11:50:02Z</time>
      </trkpt>
      <trkpt lat="43.50246" lon="6.88383">
        <ele>304</ele>
        <time>2011-03-21T11:50:43Z</time>
      </trkpt>
      <trkpt lat="43.50245" lon="6.88396">
        <ele>304</ele>
        <time>2011-03-21T11:50:52Z</time>
      </trkpt>
      <trkpt lat="43.50245" lon="6.8841">
        <ele>304</ele>
        <time>2011-03-21T11:51:01Z</time>
      </trkpt>
      <trkpt lat="43.50249" lon="6.88421">
        <ele>304</ele>
        <time>2011-03-21T11:51:16Z</time>
      </trkpt>
      <trkpt lat="43.50246" lon="6.8841">
        <ele>304</ele>
        <time>2011-03-21T11:51:52Z</time>
      </trkpt>
      <trkpt lat="43.50244" lon="6.88396">
        <ele>304</ele>
        <time>2011-03-21T11:52:07Z</time>
      </trkpt>
      <trkpt lat="43.50235" lon="6.88399">
        <ele>299</ele>
        <time>2011-03-21T11:52:23Z</time>
      </trkpt>
      <trkpt lat="43.50241" lon="6.88388">
        <ele>299</ele>
        <time>2011-03-21T11:52:37Z</time>
      </trkpt>
      <trkpt lat="43.50249" lon="6.88384">
        <ele>299</ele>
        <time>2011-03-21T11:53:47Z</time>
      </trkpt>
      <trkpt lat="43.50249" lon="6.88371">
        <ele>299</ele>
        <time>2011-03-21T11:54:02Z</time>
      </trkpt>
      <trkpt lat="43.50243" lon="6.88361">
        <ele>299</ele>
        <time>2011-03-21T11:54:13Z</time>
      </trkpt>
      <trkpt lat="43.50239" lon="6.8835">
        <ele>299</ele>
        <time>2011-03-21T11:54:29Z</time>
      </trkpt>
      <trkpt lat="43.50244" lon="6.8834">
        <ele>305</ele>
        <time>2011-03-21T11:54:39Z</time>
      </trkpt>
      <trkpt lat="43.50245" lon="6.88328">
        <ele>311</ele>
        <time>2011-03-21T11:55:10Z</time>
      </trkpt>
      <trkpt lat="43.50238" lon="6.88335">
        <ele>325</ele>
        <time>2011-03-21T11:56:53Z</time>
      </trkpt>
      <trkpt lat="43.50247" lon="6.88336">
        <ele>314</ele>
        <time>2011-03-21T11:57:32Z</time>
      </trkpt>
      <trkpt lat="43.5024" lon="6.88329">
        <ele>308</ele>
        <time>2011-03-21T12:10:05Z</time>
      </trkpt>
      <trkpt lat="43.50243" lon="6.88317">
        <ele>308</ele>
        <time>2011-03-21T12:10:41Z</time>
      </trkpt>
      <trkpt lat="43.50246" lon="6.88329">
        <ele>308</ele>
        <time>2011-03-21T12:11:00Z</time>
      </trkpt>
      <trkpt lat="43.50239" lon="6.88321">
        <ele>308</ele>
        <time>2011-03-21T12:11:31Z</time>
      </trkpt>
      <trkpt lat="43.50245" lon="6.88331">
        <ele>308</ele>
        <time>2011-03-21T12:14:27Z</time>
      </trkpt>
      <trkpt lat="43.50237" lon="6.88334">
        <ele>308</ele>
        <time>2011-03-21T12:24:06Z</time>
      </trkpt>
      <trkpt lat="43.50246" lon="6.88335">
        <ele>308</ele>
        <time>2011-03-21T12:25:13Z</time>
      </trkpt>
      <trkpt lat="43.50243" lon="6.88323">
        <ele>308</ele>
        <time>2011-03-21T12:26:53Z</time>
      </trkpt>
      <trkpt lat="43.50242" lon="6.88337">
        <ele>314</ele>
        <time>2011-03-21T12:27:26Z</time>
      </trkpt>
      <trkpt lat="43.50239" lon="6.88324">
        <ele>302</ele>
        <time>2011-03-21T12:28:06Z</time>
      </trkpt>
      <trkpt lat="43.50248" lon="6.88319">
        <ele>314</ele>
        <time>2011-03-21T12:28:41Z</time>
      </trkpt>
      <trkpt lat="43.50241" lon="6.88331">
        <ele>320</ele>
        <time>2011-03-21T12:29:27Z</time>
      </trkpt>
      <trkpt lat="43.50237" lon="6.88343">
        <ele>309</ele>
        <time>2011-03-21T12:31:57Z</time>
      </trkpt>
      <trkpt lat="43.50245" lon="6.88337">
        <ele>304</ele>
        <time>2011-03-21T12:33:00Z</time>
      </trkpt>
      <trkpt lat="43.50247" lon="6.88349">
        <ele>304</ele>
        <time>2011-03-21T12:38:54Z</time>
      </trkpt>
      <trkpt lat="43.50247" lon="6.88362">
        <ele>312</ele>
        <time>2011-03-21T12:39:23Z</time>
      </trkpt>
      <trkpt lat="43.50249" lon="6.88375">
        <ele>312</ele>
        <time>2011-03-21T12:39:42Z</time>
      </trkpt>
      <trkpt lat="43.50252" lon="6.88386">
        <ele>312</ele>
        <time>2011-03-21T12:39:54Z</time>
      </trkpt>
      <trkpt lat="43.5026" lon="6.88393">
        <ele>312</ele>
        <time>2011-03-21T12:40:05Z</time>
      </trkpt>
      <trkpt lat="43.50269" lon="6.8839">
        <ele>305</ele>
        <time>2011-03-21T12:40:15Z</time>
      </trkpt>
      <trkpt lat="43.50278" lon="6.88385">
        <ele>305</ele>
        <time>2011-03-21T12:40:27Z</time>
      </trkpt>
      <trkpt lat="43.50289" lon="6.88379">
        <ele>299</ele>
        <time>2011-03-21T12:40:40Z</time>
      </trkpt>
      <trkpt lat="43.50296" lon="6.88372">
        <ele>299</ele>
        <time>2011-03-21T12:40:46Z</time>
      </trkpt>
      <trkpt lat="43.50303" lon="6.88364">
        <ele>299</ele>
        <time>2011-03-21T12:40:57Z</time>
      </trkpt>
      <trkpt lat="43.50309" lon="6.88353">
        <ele>291</ele>
        <time>2011-03-21T12:41:05Z</time>
      </trkpt>
      <trkpt lat="43.50314" lon="6.88343">
        <ele>291</ele>
        <time>2011-03-21T12:41:15Z</time>
      </trkpt>
      <trkpt lat="43.50319" lon="6.88332">
        <ele>291</ele>
        <time>2011-03-21T12:41:26Z</time>
      </trkpt>
      <trkpt lat="43.50326" lon="6.88324">
        <ele>291</ele>
        <time>2011-03-21T12:41:37Z</time>
      </trkpt>
      <trkpt lat="43.50335" lon="6.88319">
        <ele>291</ele>
        <time>2011-03-21T12:41:44Z</time>
      </trkpt>
      <trkpt lat="43.50344" lon="6.88316">
        <ele>291</ele>
        <time>2011-03-21T12:41:56Z</time>
      </trkpt>
      <trkpt lat="43.50353" lon="6.88313">
        <ele>291</ele>
        <time>2011-03-21T12:42:06Z</time>
      </trkpt>
      <trkpt lat="43.50362" lon="6.88307">
        <ele>291</ele>
        <time>2011-03-21T12:42:17Z</time>
      </trkpt>
      <trkpt lat="43.50368" lon="6.88297">
        <ele>297</ele>
        <time>2011-03-21T12:42:28Z</time>
      </trkpt>
      <trkpt lat="43.50371" lon="6.88286">
        <ele>297</ele>
        <time>2011-03-21T12:42:39Z</time>
      </trkpt>
      <trkpt lat="43.50375" lon="6.88274">
        <ele>303</ele>
        <time>2011-03-21T12:42:50Z</time>
      </trkpt>
      <trkpt lat="43.50377" lon="6.88262">
        <ele>303</ele>
        <time>2011-03-21T12:42:59Z</time>
      </trkpt>
      <trkpt lat="43.5038" lon="6.88251">
        <ele>303</ele>
        <time>2011-03-21T12:43:08Z</time>
      </trkpt>
      <trkpt lat="43.50383" lon="6.88239">
        <ele>303</ele>
        <time>2011-03-21T12:43:16Z</time>
      </trkpt>
      <trkpt lat="43.50387" lon="6.88227">
        <ele>303</ele>
        <time>2011-03-21T12:43:24Z</time>
      </trkpt>
      <trkpt lat="43.50393" lon="6.88217">
        <ele>303</ele>
        <time>2011-03-21T12:43:33Z</time>
      </trkpt>
      <trkpt lat="43.50402" lon="6.88214">
        <ele>303</ele>
        <time>2011-03-21T12:43:42Z</time>
      </trkpt>
      <trkpt lat="43.50411" lon="6.88212">
        <ele>303</ele>
        <time>2011-03-21T12:43:52Z</time>
      </trkpt>
      <trkpt lat="43.50421" lon="6.88215">
        <ele>313</ele>
        <time>2011-03-21T12:44:02Z</time>
      </trkpt>
      <trkpt lat="43.5043" lon="6.88218">
        <ele>313</ele>
        <time>2011-03-21T12:44:11Z</time>
      </trkpt>
      <trkpt lat="43.50437" lon="6.88228">
        <ele>313</ele>
        <time>2011-03-21T12:44:21Z</time>
      </trkpt>
      <trkpt lat="43.50443" lon="6.88239">
        <ele>313</ele>
        <time>2011-03-21T12:44:30Z</time>
      </trkpt>
      <trkpt lat="43.50449" lon="6.88248">
        <ele>313</ele>
        <time>2011-03-21T12:44:37Z</time>
      </trkpt>
      <trkpt lat="43.50455" lon="6.88259">
        <ele>313</ele>
        <time>2011-03-21T12:44:46Z</time>
      </trkpt>
      <trkpt lat="43.50461" lon="6.88269">
        <ele>313</ele>
        <time>2011-03-21T12:44:54Z</time>
      </trkpt>
      <trkpt lat="43.50468" lon="6.88278">
        <ele>313</ele>
        <time>2011-03-21T12:45:03Z</time>
      </trkpt>
      <trkpt lat="43.50475" lon="6.88286">
        <ele>313</ele>
        <time>2011-03-21T12:45:11Z</time>
      </trkpt>
      <trkpt lat="43.50482" lon="6.88293">
        <ele>313</ele>
        <time>2011-03-21T12:45:19Z</time>
      </trkpt>
      <trkpt lat="43.50489" lon="6.88303">
        <ele>307</ele>
        <time>2011-03-21T12:45:27Z</time>
      </trkpt>
      <trkpt lat="43.50497" lon="6.88311">
        <ele>307</ele>
        <time>2011-03-21T12:45:35Z</time>
      </trkpt>
      <trkpt lat="43.50505" lon="6.88318">
        <ele>307</ele>
        <time>2011-03-21T12:45:44Z</time>
      </trkpt>
      <trkpt lat="43.50514" lon="6.88324">
        <ele>307</ele>
        <time>2011-03-21T12:45:52Z</time>
      </trkpt>
      <trkpt lat="43.50523" lon="6.88329">
        <ele>307</ele>
        <time>2011-03-21T12:46:00Z</time>
      </trkpt>
      <trkpt lat="43.50532" lon="6.88331">
        <ele>300</ele>
        <time>2011-03-21T12:46:08Z</time>
      </trkpt>
      <trkpt lat="43.50541" lon="6.88336">
        <ele>300</ele>
        <time>2011-03-21T12:46:17Z</time>
      </trkpt>
      <trkpt lat="43.50551" lon="6.8834">
        <ele>306</ele>
        <time>2011-03-21T12:46:25Z</time>
      </trkpt>
      <trkpt lat="43.5056" lon="6.88341">
        <ele>306</ele>
        <time>2011-03-21T12:46:34Z</time>
      </trkpt>
      <trkpt lat="43.50568" lon="6.88346">
        <ele>306</ele>
        <time>2011-03-21T12:46:41Z</time>
      </trkpt>
      <trkpt lat="43.50578" lon="6.88349">
        <ele>306</ele>
        <time>2011-03-21T12:46:50Z</time>
      </trkpt>
      <trkpt lat="43.50587" lon="6.88355">
        <ele>306</ele>
        <time>2011-03-21T12:46:58Z</time>
      </trkpt>
      <trkpt lat="43.50594" lon="6.88362">
        <ele>297</ele>
        <time>2011-03-21T12:47:08Z</time>
      </trkpt>
      <trkpt lat="43.50602" lon="6.88369">
        <ele>297</ele>
        <time>2011-03-21T12:47:16Z</time>
      </trkpt>
      <trkpt lat="43.50609" lon="6.88376">
        <ele>291</ele>
        <time>2011-03-21T12:47:26Z</time>
      </trkpt>
      <trkpt lat="43.50617" lon="6.88384">
        <ele>291</ele>
        <time>2011-03-21T12:47:34Z</time>
      </trkpt>
      <trkpt lat="43.50624" lon="6.88391">
        <ele>291</ele>
        <time>2011-03-21T12:47:42Z</time>
      </trkpt>
      <trkpt lat="43.50633" lon="6.88395">
        <ele>291</ele>
        <time>2011-03-21T12:47:51Z</time>
      </trkpt>
      <trkpt lat="43.50642" lon="6.88392">
        <ele>291</ele>
        <time>2011-03-21T12:48:00Z</time>
      </trkpt>
      <trkpt lat="43.50648" lon="6.88381">
        <ele>291</ele>
        <time>2011-03-21T12:48:10Z</time>
      </trkpt>
      <trkpt lat="43.50655" lon="6.88371">
        <ele>285</ele>
        <time>2011-03-21T12:48:19Z</time>
      </trkpt>
      <trkpt lat="43.5066" lon="6.88361">
        <ele>285</ele>
        <time>2011-03-21T12:48:27Z</time>
      </trkpt>
      <trkpt lat="43.50666" lon="6.8835">
        <ele>285</ele>
        <time>2011-03-21T12:48:36Z</time>
      </trkpt>
      <trkpt lat="43.50674" lon="6.88343">
        <ele>285</ele>
        <time>2011-03-21T12:48:44Z</time>
      </trkpt>
      <trkpt lat="43.50682" lon="6.88337">
        <ele>278</ele>
        <time>2011-03-21T12:48:52Z</time>
      </trkpt>
      <trkpt lat="43.50691" lon="6.88331">
        <ele>278</ele>
        <time>2011-03-21T12:49:00Z</time>
      </trkpt>
      <trkpt lat="43.50699" lon="6.88326">
        <ele>278</ele>
        <time>2011-03-21T12:49:08Z</time>
      </trkpt>
      <trkpt lat="43.5071" lon="6.88322">
        <ele>278</ele>
        <time>2011-03-21T12:49:18Z</time>
      </trkpt>
      <trkpt lat="43.50719" lon="6.88319">
        <ele>278</ele>
        <time>2011-03-21T12:49:27Z</time>
      </trkpt>
      <trkpt lat="43.50727" lon="6.88314">
        <ele>278</ele>
        <time>2011-03-21T12:49:36Z</time>
      </trkpt>
      <trkpt lat="43.50734" lon="6.88307">
        <ele>278</ele>
        <time>2011-03-21T12:49:45Z</time>
      </trkpt>
      <trkpt lat="43.5074" lon="6.88296">
        <ele>278</ele>
        <time>2011-03-21T12:49:54Z</time>
      </trkpt>
      <trkpt lat="43.50744" lon="6.88285">
        <ele>278</ele>
        <time>2011-03-21T12:50:03Z</time>
      </trkpt>
      <trkpt lat="43.50748" lon="6.88273">
        <ele>278</ele>
        <time>2011-03-21T12:50:11Z</time>
      </trkpt>
      <trkpt lat="43.50755" lon="6.88262">
        <ele>278</ele>
        <time>2011-03-21T12:50:19Z</time>
      </trkpt>
      <trkpt lat="43.50759" lon="6.88251">
        <ele>278</ele>
        <time>2011-03-21T12:50:27Z</time>
      </trkpt>
      <trkpt lat="43.50762" lon="6.88239">
        <ele>273</ele>
        <time>2011-03-21T12:50:35Z</time>
      </trkpt>
      <trkpt lat="43.50766" lon="6.88227">
        <ele>273</ele>
        <time>2011-03-21T12:50:43Z</time>
      </trkpt>
      <trkpt lat="43.50772" lon="6.88216">
        <ele>273</ele>
        <time>2011-03-21T12:50:52Z</time>
      </trkpt>
      <trkpt lat="43.50779" lon="6.88207">
        <ele>273</ele>
        <time>2011-03-21T12:51:00Z</time>
      </trkpt>
      <trkpt lat="43.50786" lon="6.88199">
        <ele>273</ele>
        <time>2011-03-21T12:51:08Z</time>
      </trkpt>
      <trkpt lat="43.50793" lon="6.8819">
        <ele>273</ele>
        <time>2011-03-21T12:51:17Z</time>
      </trkpt>
      <trkpt lat="43.50798" lon="6.8818">
        <ele>273</ele>
        <time>2011-03-21T12:51:26Z</time>
      </trkpt>
      <trkpt lat="43.508" lon="6.88167">
        <ele>262</ele>
        <time>2011-03-21T12:51:34Z</time>
      </trkpt>
      <trkpt lat="43.50804" lon="6.88155">
        <ele>262</ele>
        <time>2011-03-21T12:51:42Z</time>
      </trkpt>
      <trkpt lat="43.50806" lon="6.88144">
        <ele>262</ele>
        <time>2011-03-21T12:51:53Z</time>
      </trkpt>
      <trkpt lat="43.5081" lon="6.88132">
        <ele>262</ele>
        <time>2011-03-21T12:52:00Z</time>
      </trkpt>
      <trkpt lat="43.50814" lon="6.8812">
        <ele>262</ele>
        <time>2011-03-21T12:52:09Z</time>
      </trkpt>
      <trkpt lat="43.50817" lon="6.88109">
        <ele>262</ele>
        <time>2011-03-21T12:52:20Z</time>
      </trkpt>
      <trkpt lat="43.50821" lon="6.88097">
        <ele>262</ele>
        <time>2011-03-21T12:52:28Z</time>
      </trkpt>
      <trkpt lat="43.50825" lon="6.88085">
        <ele>262</ele>
        <time>2011-03-21T12:52:36Z</time>
      </trkpt>
      <trkpt lat="43.5083" lon="6.88075">
        <ele>262</ele>
        <time>2011-03-21T12:52:44Z</time>
      </trkpt>
      <trkpt lat="43.50834" lon="6.88062">
        <ele>262</ele>
        <time>2011-03-21T12:52:53Z</time>
      </trkpt>
      <trkpt lat="43.50837" lon="6.88049">
        <ele>255</ele>
        <time>2011-03-21T12:53:02Z</time>
      </trkpt>
      <trkpt lat="43.50836" lon="6.88037">
        <ele>255</ele>
        <time>2011-03-21T12:53:12Z</time>
      </trkpt>
      <trkpt lat="43.50839" lon="6.88025">
        <ele>255</ele>
        <time>2011-03-21T12:53:20Z</time>
      </trkpt>
      <trkpt lat="43.50846" lon="6.88016">
        <ele>255</ele>
        <time>2011-03-21T12:53:27Z</time>
      </trkpt>
      <trkpt lat="43.50856" lon="6.88019">
        <ele>255</ele>
        <time>2011-03-21T12:53:41Z</time>
      </trkpt>
      <trkpt lat="43.50864" lon="6.88023">
        <ele>261</ele>
        <time>2011-03-21T12:53:49Z</time>
      </trkpt>
      <trkpt lat="43.50873" lon="6.8803">
        <ele>261</ele>
        <time>2011-03-21T12:53:58Z</time>
      </trkpt>
      <trkpt lat="43.50881" lon="6.88037">
        <ele>261</ele>
        <time>2011-03-21T12:54:07Z</time>
      </trkpt>
      <trkpt lat="43.50887" lon="6.88047">
        <ele>261</ele>
        <time>2011-03-21T12:54:16Z</time>
      </trkpt>
      <trkpt lat="43.50897" lon="6.88049">
        <ele>254</ele>
        <time>2011-03-21T12:54:24Z</time>
      </trkpt>
      <trkpt lat="43.50906" lon="6.88046">
        <ele>254</ele>
        <time>2011-03-21T12:54:32Z</time>
      </trkpt>
      <trkpt lat="43.50914" lon="6.88041">
        <ele>254</ele>
        <time>2011-03-21T12:54:42Z</time>
      </trkpt>
      <trkpt lat="43.50922" lon="6.88033">
        <ele>254</ele>
        <time>2011-03-21T12:54:52Z</time>
      </trkpt>
      <trkpt lat="43.5093" lon="6.88026">
        <ele>254</ele>
        <time>2011-03-21T12:55:00Z</time>
      </trkpt>
      <trkpt lat="43.50936" lon="6.88017">
        <ele>254</ele>
        <time>2011-03-21T12:55:09Z</time>
      </trkpt>
      <trkpt lat="43.50944" lon="6.88009">
        <ele>254</ele>
        <time>2011-03-21T12:55:17Z</time>
      </trkpt>
      <trkpt lat="43.50953" lon="6.88006">
        <ele>254</ele>
        <time>2011-03-21T12:55:25Z</time>
      </trkpt>
      <trkpt lat="43.50962" lon="6.8801">
        <ele>254</ele>
        <time>2011-03-21T12:55:35Z</time>
      </trkpt>
      <trkpt lat="43.50967" lon="6.88021">
        <ele>254</ele>
        <time>2011-03-21T12:55:43Z</time>
      </trkpt>
      <trkpt lat="43.50969" lon="6.88033">
        <ele>254</ele>
        <time>2011-03-21T12:55:50Z</time>
      </trkpt>
      <trkpt lat="43.5097" lon="6.88047">
        <ele>263</ele>
        <time>2011-03-21T12:55:58Z</time>
      </trkpt>
      <trkpt lat="43.50972" lon="6.88059">
        <ele>263</ele>
        <time>2011-03-21T12:56:08Z</time>
      </trkpt>
      <trkpt lat="43.50972" lon="6.88072">
        <ele>263</ele>
        <time>2011-03-21T12:56:17Z</time>
      </trkpt>
      <trkpt lat="43.50971" lon="6.88084">
        <ele>263</ele>
        <time>2011-03-21T12:56:28Z</time>
      </trkpt>
      <trkpt lat="43.50968" lon="6.88098">
        <ele>263</ele>
        <time>2011-03-21T12:56:35Z</time>
      </trkpt>
      <trkpt lat="43.50968" lon="6.8811">
        <ele>263</ele>
        <time>2011-03-21T12:56:44Z</time>
      </trkpt>
      <trkpt lat="43.50969" lon="6.88123">
        <ele>263</ele>
        <time>2011-03-21T12:56:53Z</time>
      </trkpt>
      <trkpt lat="43.50972" lon="6.88135">
        <ele>263</ele>
        <time>2011-03-21T12:57:02Z</time>
      </trkpt>
      <trkpt lat="43.50973" lon="6.88148">
        <ele>263</ele>
        <time>2011-03-21T12:57:15Z</time>
      </trkpt>
      <trkpt lat="43.50978" lon="6.88158">
        <ele>257</ele>
        <time>2011-03-21T12:57:26Z</time>
      </trkpt>
      <trkpt lat="43.50979" lon="6.88172">
        <ele>257</ele>
        <time>2011-03-21T12:57:34Z</time>
      </trkpt>
      <trkpt lat="43.50982" lon="6.88183">
        <ele>257</ele>
        <time>2011-03-21T12:57:43Z</time>
      </trkpt>
      <trkpt lat="43.50984" lon="6.88196">
        <ele>257</ele>
        <time>2011-03-21T12:57:51Z</time>
      </trkpt>
      <trkpt lat="43.50989" lon="6.88207">
        <ele>257</ele>
        <time>2011-03-21T12:57:59Z</time>
      </trkpt>
      <trkpt lat="43.50993" lon="6.88219">
        <ele>266</ele>
        <time>2011-03-21T12:58:08Z</time>
      </trkpt>
      <trkpt lat="43.51002" lon="6.88224">
        <ele>266</ele>
        <time>2011-03-21T12:58:17Z</time>
      </trkpt>
      <trkpt lat="43.5101" lon="6.88232">
        <ele>266</ele>
        <time>2011-03-21T12:58:25Z</time>
      </trkpt>
      <trkpt lat="43.51019" lon="6.88232">
        <ele>259</ele>
        <time>2011-03-21T12:58:35Z</time>
      </trkpt>
      <trkpt lat="43.51029" lon="6.88232">
        <ele>259</ele>
        <time>2011-03-21T12:58:42Z</time>
      </trkpt>
      <trkpt lat="43.51038" lon="6.88233">
        <ele>259</ele>
        <time>2011-03-21T12:58:49Z</time>
      </trkpt>
      <trkpt lat="43.51049" lon="6.88235">
        <ele>259</ele>
        <time>2011-03-21T12:59:02Z</time>
      </trkpt>
      <trkpt lat="43.51059" lon="6.88237">
        <ele>259</ele>
        <time>2011-03-21T12:59:08Z</time>
      </trkpt>
      <trkpt lat="43.51068" lon="6.88241">
        <ele>259</ele>
        <time>2011-03-21T12:59:17Z</time>
      </trkpt>
      <trkpt lat="43.51077" lon="6.88239">
        <ele>259</ele>
        <time>2011-03-21T12:59:27Z</time>
      </trkpt>
      <trkpt lat="43.51086" lon="6.88241">
        <ele>251</ele>
        <time>2011-03-21T12:59:36Z</time>
      </trkpt>
      <trkpt lat="43.51097" lon="6.88241">
        <ele>251</ele>
        <time>2011-03-21T12:59:42Z</time>
      </trkpt>
      <trkpt lat="43.51106" lon="6.88245">
        <ele>251</ele>
        <time>2011-03-21T12:59:50Z</time>
      </trkpt>
      <trkpt lat="43.51116" lon="6.88248">
        <ele>251</ele>
        <time>2011-03-21T12:59:58Z</time>
      </trkpt>
      <trkpt lat="43.51123" lon="6.88258">
        <ele>257</ele>
        <time>2011-03-21T13:00:07Z</time>
      </trkpt>
      <trkpt lat="43.51131" lon="6.88264">
        <ele>257</ele>
        <time>2011-03-21T13:00:17Z</time>
      </trkpt>
      <trkpt lat="43.5114" lon="6.88275">
        <ele>257</ele>
        <time>2011-03-21T13:00:27Z</time>
      </trkpt>
      <trkpt lat="43.51147" lon="6.88286">
        <ele>257</ele>
        <time>2011-03-21T13:00:35Z</time>
      </trkpt>
      <trkpt lat="43.51153" lon="6.88296">
        <ele>251</ele>
        <time>2011-03-21T13:00:44Z</time>
      </trkpt>
      <trkpt lat="43.51158" lon="6.88306">
        <ele>251</ele>
        <time>2011-03-21T13:00:54Z</time>
      </trkpt>
      <trkpt lat="43.51159" lon="6.88319">
        <ele>251</ele>
        <time>2011-03-21T13:01:00Z</time>
      </trkpt>
      <trkpt lat="43.51161" lon="6.88332">
        <ele>251</ele>
        <time>2011-03-21T13:01:07Z</time>
      </trkpt>
      <trkpt lat="43.51165" lon="6.88346">
        <ele>251</ele>
        <time>2011-03-21T13:01:15Z</time>
      </trkpt>
      <trkpt lat="43.51169" lon="6.88358">
        <ele>251</ele>
        <time>2011-03-21T13:01:23Z</time>
      </trkpt>
      <trkpt lat="43.51173" lon="6.8837">
        <ele>251</ele>
        <time>2011-03-21T13:01:31Z</time>
      </trkpt>
      <trkpt lat="43.51181" lon="6.8838">
        <ele>251</ele>
        <time>2011-03-21T13:01:39Z</time>
      </trkpt>
      <trkpt lat="43.51186" lon="6.88391">
        <ele>251</ele>
        <time>2011-03-21T13:01:48Z</time>
      </trkpt>
      <trkpt lat="43.51191" lon="6.88403">
        <ele>251</ele>
        <time>2011-03-21T13:01:57Z</time>
      </trkpt>
      <trkpt lat="43.51193" lon="6.88417">
        <ele>251</ele>
        <time>2011-03-21T13:02:05Z</time>
      </trkpt>
      <trkpt lat="43.51196" lon="6.88429">
        <ele>251</ele>
        <time>2011-03-21T13:02:13Z</time>
      </trkpt>
      <trkpt lat="43.51198" lon="6.88443">
        <ele>251</ele>
        <time>2011-03-21T13:02:21Z</time>
      </trkpt>
      <trkpt lat="43.51199" lon="6.88455">
        <ele>244</ele>
        <time>2011-03-21T13:02:30Z</time>
      </trkpt>
      <trkpt lat="43.51201" lon="6.88468">
        <ele>244</ele>
        <time>2011-03-21T13:02:39Z</time>
      </trkpt>
      <trkpt lat="43.51199" lon="6.88481">
        <ele>244</ele>
        <time>2011-03-21T13:02:46Z</time>
      </trkpt>
      <trkpt lat="43.51197" lon="6.88494">
        <ele>244</ele>
        <time>2011-03-21T13:02:56Z</time>
      </trkpt>
      <trkpt lat="43.51197" lon="6.88508">
        <ele>244</ele>
        <time>2011-03-21T13:03:06Z</time>
      </trkpt>
      <trkpt lat="43.51197" lon="6.8852">
        <ele>239</ele>
        <time>2011-03-21T13:03:14Z</time>
      </trkpt>
      <trkpt lat="43.51197" lon="6.88533">
        <ele>239</ele>
        <time>2011-03-21T13:03:22Z</time>
      </trkpt>
      <trkpt lat="43.51201" lon="6.88544">
        <ele>233</ele>
        <time>2011-03-21T13:03:31Z</time>
      </trkpt>
      <trkpt lat="43.51208" lon="6.88553">
        <ele>233</ele>
        <time>2011-03-21T13:03:42Z</time>
      </trkpt>
      <trkpt lat="43.51216" lon="6.88561">
        <ele>228</ele>
        <time>2011-03-21T13:03:50Z</time>
      </trkpt>
      <trkpt lat="43.51223" lon="6.88567">
        <ele>228</ele>
        <time>2011-03-21T13:03:58Z</time>
      </trkpt>
      <trkpt lat="43.51231" lon="6.88575">
        <ele>228</ele>
        <time>2011-03-21T13:04:07Z</time>
      </trkpt>
      <trkpt lat="43.51237" lon="6.88584">
        <ele>228</ele>
        <time>2011-03-21T13:04:16Z</time>
      </trkpt>
      <trkpt lat="43.5124" lon="6.88596">
        <ele>228</ele>
        <time>2011-03-21T13:05:22Z</time>
      </trkpt>
      <trkpt lat="43.5125" lon="6.88598">
        <ele>228</ele>
        <time>2011-03-21T13:05:33Z</time>
      </trkpt>
      <trkpt lat="43.51259" lon="6.88594">
        <ele>228</ele>
        <time>2011-03-21T13:05:40Z</time>
      </trkpt>
      <trkpt lat="43.51265" lon="6.88585">
        <ele>228</ele>
        <time>2011-03-21T13:05:48Z</time>
      </trkpt>
      <trkpt lat="43.51269" lon="6.88572">
        <ele>228</ele>
        <time>2011-03-21T13:05:57Z</time>
      </trkpt>
      <trkpt lat="43.5127" lon="6.88559">
        <ele>222</ele>
        <time>2011-03-21T13:06:08Z</time>
      </trkpt>
      <trkpt lat="43.51272" lon="6.88545">
        <ele>222</ele>
        <time>2011-03-21T13:06:18Z</time>
      </trkpt>
      <trkpt lat="43.51282" lon="6.88544">
        <ele>222</ele>
        <time>2011-03-21T13:06:30Z</time>
      </trkpt>
      <trkpt lat="43.51291" lon="6.88546">
        <ele>222</ele>
        <time>2011-03-21T13:06:38Z</time>
      </trkpt>
      <trkpt lat="43.51301" lon="6.88547">
        <ele>229</ele>
        <time>2011-03-21T13:06:47Z</time>
      </trkpt>
      <trkpt lat="43.5131" lon="6.88547">
        <ele>229</ele>
        <time>2011-03-21T13:06:56Z</time>
      </trkpt>
      <trkpt lat="43.5132" lon="6.88547">
        <ele>229</ele>
        <time>2011-03-21T13:07:04Z</time>
      </trkpt>
      <trkpt lat="43.51329" lon="6.88549">
        <ele>229</ele>
        <time>2011-03-21T13:07:12Z</time>
      </trkpt>
      <trkpt lat="43.51338" lon="6.88551">
        <ele>229</ele>
        <time>2011-03-21T13:07:21Z</time>
      </trkpt>
      <trkpt lat="43.51348" lon="6.88549">
        <ele>229</ele>
        <time>2011-03-21T13:07:29Z</time>
      </trkpt>
      <trkpt lat="43.51354" lon="6.8854">
        <ele>229</ele>
        <time>2011-03-21T13:07:37Z</time>
      </trkpt>
      <trkpt lat="43.51359" lon="6.8853">
        <ele>229</ele>
        <time>2011-03-21T13:07:45Z</time>
      </trkpt>
      <trkpt lat="43.51359" lon="6.88517">
        <ele>229</ele>
        <time>2011-03-21T13:07:56Z</time>
      </trkpt>
      <trkpt lat="43.51361" lon="6.88503">
        <ele>220</ele>
        <time>2011-03-21T13:08:05Z</time>
      </trkpt>
      <trkpt lat="43.51364" lon="6.88491">
        <ele>220</ele>
        <time>2011-03-21T13:08:13Z</time>
      </trkpt>
      <trkpt lat="43.51367" lon="6.8848">
        <ele>220</ele>
        <time>2011-03-21T13:08:20Z</time>
      </trkpt>
      <trkpt lat="43.51371" lon="6.88466">
        <ele>220</ele>
        <time>2011-03-21T13:08:32Z</time>
      </trkpt>
      <trkpt lat="43.51375" lon="6.88455">
        <ele>220</ele>
        <time>2011-03-21T13:08:41Z</time>
      </trkpt>
      <trkpt lat="43.51382" lon="6.88446">
        <ele>220</ele>
        <time>2011-03-21T13:08:50Z</time>
      </trkpt>
      <trkpt lat="43.51388" lon="6.88435">
        <ele>220</ele>
        <time>2011-03-21T13:09:00Z</time>
      </trkpt>
      <trkpt lat="43.51392" lon="6.88422">
        <ele>220</ele>
        <time>2011-03-21T13:09:11Z</time>
      </trkpt>
      <trkpt lat="43.51391" lon="6.8841">
        <ele>210</ele>
        <time>2011-03-21T13:09:17Z</time>
      </trkpt>
      <trkpt lat="43.51396" lon="6.88394">
        <ele>210</ele>
        <time>2011-03-21T13:09:28Z</time>
      </trkpt>
      <trkpt lat="43.51391" lon="6.88384">
        <ele>210</ele>
        <time>2011-03-21T13:09:34Z</time>
      </trkpt>
      <trkpt lat="43.51393" lon="6.88371">
        <ele>219</ele>
        <time>2011-03-21T13:09:42Z</time>
      </trkpt>
      <trkpt lat="43.51397" lon="6.88359">
        <ele>219</ele>
        <time>2011-03-21T13:09:51Z</time>
      </trkpt>
      <trkpt lat="43.51394" lon="6.88347">
        <ele>219</ele>
        <time>2011-03-21T13:09:57Z</time>
      </trkpt>
      <trkpt lat="43.51394" lon="6.88332">
        <ele>219</ele>
        <time>2011-03-21T13:10:10Z</time>
      </trkpt>
      <trkpt lat="43.51395" lon="6.8832">
        <ele>219</ele>
        <time>2011-03-21T13:10:17Z</time>
      </trkpt>
      <trkpt lat="43.51395" lon="6.88307">
        <ele>219</ele>
        <time>2011-03-21T13:10:24Z</time>
      </trkpt>
      <trkpt lat="43.51391" lon="6.88295">
        <ele>219</ele>
        <time>2011-03-21T13:10:34Z</time>
      </trkpt>
      <trkpt lat="43.51394" lon="6.88281">
        <ele>219</ele>
        <time>2011-03-21T13:10:42Z</time>
      </trkpt>
      <trkpt lat="43.51399" lon="6.88269">
        <ele>219</ele>
        <time>2011-03-21T13:10:51Z</time>
      </trkpt>
      <trkpt lat="43.51406" lon="6.88261">
        <ele>219</ele>
        <time>2011-03-21T13:11:02Z</time>
      </trkpt>
      <trkpt lat="43.51416" lon="6.88256">
        <ele>209</ele>
        <time>2011-03-21T13:11:15Z</time>
      </trkpt>
      <trkpt lat="43.51427" lon="6.88254">
        <ele>209</ele>
        <time>2011-03-21T13:11:23Z</time>
      </trkpt>
      <trkpt lat="43.51437" lon="6.88257">
        <ele>218</ele>
        <time>2011-03-21T13:11:31Z</time>
      </trkpt>
      <trkpt lat="43.51446" lon="6.88263">
        <ele>225</ele>
        <time>2011-03-21T13:11:40Z</time>
      </trkpt>
      <trkpt lat="43.51454" lon="6.88269">
        <ele>225</ele>
        <time>2011-03-21T13:11:50Z</time>
      </trkpt>
      <trkpt lat="43.51463" lon="6.8827">
        <ele>225</ele>
        <time>2011-03-21T13:12:00Z</time>
      </trkpt>
      <trkpt lat="43.51473" lon="6.88275">
        <ele>225</ele>
        <time>2011-03-21T13:12:07Z</time>
      </trkpt>
      <trkpt lat="43.51481" lon="6.88283">
        <ele>225</ele>
        <time>2011-03-21T13:12:18Z</time>
      </trkpt>
      <trkpt lat="43.5149" lon="6.88288">
        <ele>225</ele>
        <time>2011-03-21T13:12:27Z</time>
      </trkpt>
      <trkpt lat="43.51499" lon="6.88288">
        <ele>219</ele>
        <time>2011-03-21T13:12:36Z</time>
      </trkpt>
      <trkpt lat="43.51507" lon="6.88296">
        <ele>219</ele>
        <time>2011-03-21T13:12:43Z</time>
      </trkpt>
      <trkpt lat="43.51516" lon="6.88295">
        <ele>219</ele>
        <time>2011-03-21T13:12:50Z</time>
      </trkpt>
      <trkpt lat="43.51522" lon="6.88304">
        <ele>219</ele>
        <time>2011-03-21T13:12:59Z</time>
      </trkpt>
      <trkpt lat="43.51532" lon="6.88305">
        <ele>219</ele>
        <time>2011-03-21T13:13:08Z</time>
      </trkpt>
      <trkpt lat="43.51541" lon="6.88312">
        <ele>219</ele>
        <time>2011-03-21T13:13:15Z</time>
      </trkpt>
      <trkpt lat="43.51549" lon="6.88318">
        <ele>219</ele>
        <time>2011-03-21T13:13:26Z</time>
      </trkpt>
      <trkpt lat="43.51557" lon="6.88322">
        <ele>213</ele>
        <time>2011-03-21T13:13:32Z</time>
      </trkpt>
      <trkpt lat="43.51568" lon="6.88322">
        <ele>213</ele>
        <time>2011-03-21T13:13:40Z</time>
      </trkpt>
      <trkpt lat="43.51577" lon="6.88326">
        <ele>213</ele>
        <time>2011-03-21T13:13:50Z</time>
      </trkpt>
      <trkpt lat="43.51587" lon="6.88329">
        <ele>213</ele>
        <time>2011-03-21T13:14:02Z</time>
      </trkpt>
      <trkpt lat="43.51595" lon="6.88333">
        <ele>213</ele>
        <time>2011-03-21T13:14:12Z</time>
      </trkpt>
      <trkpt lat="43.51607" lon="6.88337">
        <ele>213</ele>
        <time>2011-03-21T13:14:20Z</time>
      </trkpt>
      <trkpt lat="43.51613" lon="6.88327">
        <ele>207</ele>
        <time>2011-03-21T13:14:26Z</time>
      </trkpt>
      <trkpt lat="43.51616" lon="6.88315">
        <ele>207</ele>
        <time>2011-03-21T13:14:34Z</time>
      </trkpt>
      <trkpt lat="43.51613" lon="6.88304">
        <ele>197</ele>
        <time>2011-03-21T13:14:46Z</time>
      </trkpt>
      <trkpt lat="43.51609" lon="6.88289">
        <ele>197</ele>
        <time>2011-03-21T13:14:58Z</time>
      </trkpt>
      <trkpt lat="43.51609" lon="6.88277">
        <ele>197</ele>
        <time>2011-03-21T13:15:05Z</time>
      </trkpt>
      <trkpt lat="43.51611" lon="6.88264">
        <ele>197</ele>
        <time>2011-03-21T13:15:13Z</time>
      </trkpt>
      <trkpt lat="43.51612" lon="6.88251">
        <ele>197</ele>
        <time>2011-03-21T13:15:20Z</time>
      </trkpt>
      <trkpt lat="43.51612" lon="6.88239">
        <ele>197</ele>
        <time>2011-03-21T13:15:29Z</time>
      </trkpt>
      <trkpt lat="43.51607" lon="6.88228">
        <ele>197</ele>
        <time>2011-03-21T13:15:38Z</time>
      </trkpt>
      <trkpt lat="43.51605" lon="6.88215">
        <ele>197</ele>
        <time>2011-03-21T13:15:48Z</time>
      </trkpt>
      <trkpt lat="43.51601" lon="6.88203">
        <ele>197</ele>
        <time>2011-03-21T13:15:56Z</time>
      </trkpt>
      <trkpt lat="43.51599" lon="6.88191">
        <ele>188</ele>
        <time>2011-03-21T13:16:05Z</time>
      </trkpt>
      <trkpt lat="43.51597" lon="6.88179">
        <ele>188</ele>
        <time>2011-03-21T13:16:12Z</time>
      </trkpt>
      <trkpt lat="43.51595" lon="6.88165">
        <ele>188</ele>
        <time>2011-03-21T13:16:26Z</time>
      </trkpt>
      <trkpt lat="43.51597" lon="6.88152">
        <ele>188</ele>
        <time>2011-03-21T13:16:32Z</time>
      </trkpt>
      <trkpt lat="43.51599" lon="6.88139">
        <ele>195</ele>
        <time>2011-03-21T13:16:40Z</time>
      </trkpt>
      <trkpt lat="43.51598" lon="6.88126">
        <ele>195</ele>
        <time>2011-03-21T13:16:54Z</time>
      </trkpt>
      <trkpt lat="43.51597" lon="6.88113">
        <ele>195</ele>
        <time>2011-03-21T13:17:01Z</time>
      </trkpt>
      <trkpt lat="43.516" lon="6.881">
        <ele>195</ele>
        <time>2011-03-21T13:17:11Z</time>
      </trkpt>
      <trkpt lat="43.51603" lon="6.88087">
        <ele>195</ele>
        <time>2011-03-21T13:17:17Z</time>
      </trkpt>
      <trkpt lat="43.51597" lon="6.88076">
        <ele>187</ele>
        <time>2011-03-21T13:17:26Z</time>
      </trkpt>
      <trkpt lat="43.51598" lon="6.88063">
        <ele>187</ele>
        <time>2011-03-21T13:17:36Z</time>
      </trkpt>
      <trkpt lat="43.51598" lon="6.88049">
        <ele>180</ele>
        <time>2011-03-21T13:17:44Z</time>
      </trkpt>
      <trkpt lat="43.51595" lon="6.88038">
        <ele>175</ele>
        <time>2011-03-21T13:17:55Z</time>
      </trkpt>
      <trkpt lat="43.51592" lon="6.88025">
        <ele>175</ele>
        <time>2011-03-21T13:18:03Z</time>
      </trkpt>
      <trkpt lat="43.51595" lon="6.88012">
        <ele>175</ele>
        <time>2011-03-21T13:18:11Z</time>
      </trkpt>
      <trkpt lat="43.51593" lon="6.87999">
        <ele>180</ele>
        <time>2011-03-21T13:18:19Z</time>
      </trkpt>
      <trkpt lat="43.51591" lon="6.87986">
        <ele>185</ele>
        <time>2011-03-21T13:18:28Z</time>
      </trkpt>
      <trkpt lat="43.51588" lon="6.87974">
        <ele>185</ele>
        <time>2011-03-21T13:18:38Z</time>
      </trkpt>
      <trkpt lat="43.51586" lon="6.87962">
        <ele>185</ele>
        <time>2011-03-21T13:18:49Z</time>
      </trkpt>
      <trkpt lat="43.5158" lon="6.87949">
        <ele>174</ele>
        <time>2011-03-21T13:18:59Z</time>
      </trkpt>
      <trkpt lat="43.51578" lon="6.87936">
        <ele>174</ele>
        <time>2011-03-21T13:19:06Z</time>
      </trkpt>
      <trkpt lat="43.51575" lon="6.87922">
        <ele>174</ele>
        <time>2011-03-21T13:19:15Z</time>
      </trkpt>
      <trkpt lat="43.51574" lon="6.87907">
        <ele>174</ele>
        <time>2011-03-21T13:19:27Z</time>
      </trkpt>
      <trkpt lat="43.51574" lon="6.87895">
        <ele>174</ele>
        <time>2011-03-21T13:19:37Z</time>
      </trkpt>
      <trkpt lat="43.51569" lon="6.87884">
        <ele>174</ele>
        <time>2011-03-21T13:19:46Z</time>
      </trkpt>
      <trkpt lat="43.51565" lon="6.87872">
        <ele>166</ele>
        <time>2011-03-21T13:19:55Z</time>
      </trkpt>
      <trkpt lat="43.51562" lon="6.8786">
        <ele>166</ele>
        <time>2011-03-21T13:20:03Z</time>
      </trkpt>
      <trkpt lat="43.51562" lon="6.87846">
        <ele>166</ele>
        <time>2011-03-21T13:20:09Z</time>
      </trkpt>
      <trkpt lat="43.51555" lon="6.87837">
        <ele>166</ele>
        <time>2011-03-21T13:20:18Z</time>
      </trkpt>
      <trkpt lat="43.5155" lon="6.87827">
        <ele>175</ele>
        <time>2011-03-21T13:20:27Z</time>
      </trkpt>
      <trkpt lat="43.51548" lon="6.8781">
        <ele>175</ele>
        <time>2011-03-21T13:20:39Z</time>
      </trkpt>
      <trkpt lat="43.51547" lon="6.87795">
        <ele>175</ele>
        <time>2011-03-21T13:20:45Z</time>
      </trkpt>
      <trkpt lat="43.51542" lon="6.87784">
        <ele>164</ele>
        <time>2011-03-21T13:20:56Z</time>
      </trkpt>
      <trkpt lat="43.51539" lon="6.87773">
        <ele>164</ele>
        <time>2011-03-21T13:21:06Z</time>
      </trkpt>
      <trkpt lat="43.51541" lon="6.8776">
        <ele>164</ele>
        <time>2011-03-21T13:21:14Z</time>
      </trkpt>
      <trkpt lat="43.51542" lon="6.87748">
        <ele>164</ele>
        <time>2011-03-21T13:21:22Z</time>
      </trkpt>
      <trkpt lat="43.51541" lon="6.87735">
        <ele>164</ele>
        <time>2011-03-21T13:21:30Z</time>
      </trkpt>
      <trkpt lat="43.51536" lon="6.87725">
        <ele>164</ele>
        <time>2011-03-21T13:21:37Z</time>
      </trkpt>
      <trkpt lat="43.51528" lon="6.87719">
        <ele>164</ele>
        <time>2011-03-21T13:21:47Z</time>
      </trkpt>
      <trkpt lat="43.51518" lon="6.87717">
        <ele>164</ele>
        <time>2011-03-21T13:21:58Z</time>
      </trkpt>
      <trkpt lat="43.51514" lon="6.87706">
        <ele>157</ele>
        <time>2011-03-21T13:22:07Z</time>
      </trkpt>
      <trkpt lat="43.51516" lon="6.87695">
        <ele>157</ele>
        <time>2011-03-21T13:22:17Z</time>
      </trkpt>
      <trkpt lat="43.51522" lon="6.87685">
        <ele>157</ele>
        <time>2011-03-21T13:22:27Z</time>
      </trkpt>
      <trkpt lat="43.51526" lon="6.87672">
        <ele>157</ele>
        <time>2011-03-21T13:22:37Z</time>
      </trkpt>
      <trkpt lat="43.51531" lon="6.8766">
        <ele>157</ele>
        <time>2011-03-21T13:22:46Z</time>
      </trkpt>
      <trkpt lat="43.51533" lon="6.87647">
        <ele>157</ele>
        <time>2011-03-21T13:22:56Z</time>
      </trkpt>
      <trkpt lat="43.51529" lon="6.87634">
        <ele>150</ele>
        <time>2011-03-21T13:23:05Z</time>
      </trkpt>
      <trkpt lat="43.51524" lon="6.87624">
        <ele>150</ele>
        <time>2011-03-21T13:23:13Z</time>
      </trkpt>
      <trkpt lat="43.51519" lon="6.87614">
        <ele>144</ele>
        <time>2011-03-21T13:23:23Z</time>
      </trkpt>
      <trkpt lat="43.51516" lon="6.87602">
        <ele>144</ele>
        <time>2011-03-21T13:23:32Z</time>
      </trkpt>
      <trkpt lat="43.51516" lon="6.87588">
        <ele>152</ele>
        <time>2011-03-21T13:23:40Z</time>
      </trkpt>
      <trkpt lat="43.51522" lon="6.87577">
        <ele>152</ele>
        <time>2011-03-21T13:23:46Z</time>
      </trkpt>
      <trkpt lat="43.5152" lon="6.87563">
        <ele>152</ele>
        <time>2011-03-21T13:23:56Z</time>
      </trkpt>
      <trkpt lat="43.5152" lon="6.8755">
        <ele>152</ele>
        <time>2011-03-21T13:24:07Z</time>
      </trkpt>
      <trkpt lat="43.51519" lon="6.87537">
        <ele>152</ele>
        <time>2011-03-21T13:24:16Z</time>
      </trkpt>
      <trkpt lat="43.51522" lon="6.87526">
        <ele>152</ele>
        <time>2011-03-21T13:24:23Z</time>
      </trkpt>
      <trkpt lat="43.51522" lon="6.87512">
        <ele>145</ele>
        <time>2011-03-21T13:24:33Z</time>
      </trkpt>
      <trkpt lat="43.51519" lon="6.875">
        <ele>145</ele>
        <time>2011-03-21T13:24:43Z</time>
      </trkpt>
      <trkpt lat="43.51515" lon="6.87488">
        <ele>140</ele>
        <time>2011-03-21T13:24:50Z</time>
      </trkpt>
      <trkpt lat="43.5151" lon="6.87478">
        <ele>148</ele>
        <time>2011-03-21T13:25:00Z</time>
      </trkpt>
      <trkpt lat="43.51508" lon="6.87465">
        <ele>148</ele>
        <time>2011-03-21T13:25:09Z</time>
      </trkpt>
      <trkpt lat="43.51508" lon="6.87453">
        <ele>148</ele>
        <time>2011-03-21T13:25:21Z</time>
      </trkpt>
      <trkpt lat="43.51518" lon="6.87451">
        <ele>148</ele>
        <time>2011-03-21T13:26:48Z</time>
      </trkpt>
      <trkpt lat="43.51527" lon="6.87448">
        <ele>148</ele>
        <time>2011-03-21T13:27:11Z</time>
      </trkpt>
      <trkpt lat="43.51537" lon="6.87446">
        <ele>148</ele>
        <time>2011-03-21T13:27:22Z</time>
      </trkpt>
      <trkpt lat="43.51544" lon="6.87439">
        <ele>148</ele>
        <time>2011-03-21T13:27:32Z</time>
      </trkpt>
      <trkpt lat="43.51552" lon="6.87432">
        <ele>148</ele>
        <time>2011-03-21T13:27:40Z</time>
      </trkpt>
      <trkpt lat="43.5156" lon="6.87425">
        <ele>148</ele>
        <time>2011-03-21T13:27:48Z</time>
      </trkpt>
      <trkpt lat="43.51568" lon="6.87418">
        <ele>148</ele>
        <time>2011-03-21T13:28:01Z</time>
      </trkpt>
      <trkpt lat="43.51573" lon="6.87407">
        <ele>148</ele>
        <time>2011-03-21T13:28:12Z</time>
      </trkpt>
      <trkpt lat="43.51577" lon="6.87394">
        <ele>148</ele>
        <time>2011-03-21T13:28:22Z</time>
      </trkpt>
      <trkpt lat="43.5158" lon="6.87383">
        <ele>141</ele>
        <time>2011-03-21T13:28:31Z</time>
      </trkpt>
      <trkpt lat="43.51581" lon="6.8737">
        <ele>134</ele>
        <time>2011-03-21T13:28:40Z</time>
      </trkpt>
      <trkpt lat="43.51583" lon="6.87358">
        <ele>134</ele>
        <time>2011-03-21T13:28:49Z</time>
      </trkpt>
      <trkpt lat="43.51588" lon="6.87347">
        <ele>134</ele>
        <time>2011-03-21T13:28:57Z</time>
      </trkpt>
      <trkpt lat="43.51595" lon="6.87338">
        <ele>134</ele>
        <time>2011-03-21T13:29:07Z</time>
      </trkpt>
      <trkpt lat="43.51604" lon="6.8733">
        <ele>134</ele>
        <time>2011-03-21T13:29:19Z</time>
      </trkpt>
      <trkpt lat="43.51612" lon="6.87326">
        <ele>134</ele>
        <time>2011-03-21T13:29:26Z</time>
      </trkpt>
      <trkpt lat="43.5162" lon="6.87318">
        <ele>134</ele>
        <time>2011-03-21T13:29:38Z</time>
      </trkpt>
      <trkpt lat="43.51625" lon="6.87308">
        <ele>134</ele>
        <time>2011-03-21T13:29:47Z</time>
      </trkpt>
      <trkpt lat="43.51633" lon="6.87302">
        <ele>134</ele>
        <time>2011-03-21T13:29:58Z</time>
      </trkpt>
      <trkpt lat="43.51642" lon="6.87306">
        <ele>134</ele>
        <time>2011-03-21T13:30:08Z</time>
      </trkpt>
      <trkpt lat="43.51653" lon="6.87308">
        <ele>134</ele>
        <time>2011-03-21T13:30:19Z</time>
      </trkpt>
      <trkpt lat="43.5165" lon="6.87321">
        <ele>134</ele>
        <time>2011-03-21T13:30:45Z</time>
      </trkpt>
      <trkpt lat="43.51641" lon="6.87331">
        <ele>126</ele>
        <time>2011-03-21T13:31:00Z</time>
      </trkpt>
      <trkpt lat="43.51635" lon="6.87341">
        <ele>126</ele>
        <time>2011-03-21T13:31:07Z</time>
      </trkpt>
      <trkpt lat="43.51631" lon="6.87351">
        <ele>126</ele>
        <time>2011-03-21T13:31:17Z</time>
      </trkpt>
      <trkpt lat="43.51632" lon="6.87364">
        <ele>126</ele>
        <time>2011-03-21T13:31:32Z</time>
      </trkpt>
      <trkpt lat="43.51641" lon="6.87368">
        <ele>126</ele>
        <time>2011-03-21T13:31:44Z</time>
      </trkpt>
      <trkpt lat="43.5165" lon="6.87373">
        <ele>126</ele>
        <time>2011-03-21T13:31:57Z</time>
      </trkpt>
      <trkpt lat="43.51657" lon="6.87382">
        <ele>126</ele>
        <time>2011-03-21T13:32:07Z</time>
      </trkpt>
      <trkpt lat="43.51664" lon="6.87389">
        <ele>119</ele>
        <time>2011-03-21T13:32:19Z</time>
      </trkpt>
      <trkpt lat="43.51669" lon="6.874">
        <ele>119</ele>
        <time>2011-03-21T13:32:29Z</time>
      </trkpt>
      <trkpt lat="43.51675" lon="6.8741">
        <ele>119</ele>
        <time>2011-03-21T13:32:38Z</time>
      </trkpt>
      <trkpt lat="43.51683" lon="6.87417">
        <ele>119</ele>
        <time>2011-03-21T13:32:50Z</time>
      </trkpt>
      <trkpt lat="43.51692" lon="6.87419">
        <ele>119</ele>
        <time>2011-03-21T13:32:57Z</time>
      </trkpt>
      <trkpt lat="43.51701" lon="6.87421">
        <ele>119</ele>
        <time>2011-03-21T13:33:08Z</time>
      </trkpt>
      <trkpt lat="43.51703" lon="6.87434">
        <ele>119</ele>
        <time>2011-03-21T13:33:18Z</time>
      </trkpt>
      <trkpt lat="43.51701" lon="6.87446">
        <ele>119</ele>
        <time>2011-03-21T13:33:29Z</time>
      </trkpt>
      <trkpt lat="43.51695" lon="6.87456">
        <ele>119</ele>
        <time>2011-03-21T13:33:39Z</time>
      </trkpt>
      <trkpt lat="43.51688" lon="6.87463">
        <ele>119</ele>
        <time>2011-03-21T13:34:04Z</time>
      </trkpt>
      <trkpt lat="43.51682" lon="6.87474">
        <ele>119</ele>
        <time>2011-03-21T13:35:34Z</time>
      </trkpt>
      <trkpt lat="43.5168" lon="6.87486">
        <ele>119</ele>
        <time>2011-03-21T13:35:54Z</time>
      </trkpt>
      <trkpt lat="43.51688" lon="6.87494">
        <ele>119</ele>
        <time>2011-03-21T13:36:04Z</time>
      </trkpt>
      <trkpt lat="43.51697" lon="6.87497">
        <ele>119</ele>
        <time>2011-03-21T13:36:10Z</time>
      </trkpt>
      <trkpt lat="43.51706" lon="6.87501">
        <ele>112</ele>
        <time>2011-03-21T13:36:19Z</time>
      </trkpt>
      <trkpt lat="43.51715" lon="6.87501">
        <ele>112</ele>
        <time>2011-03-21T13:36:27Z</time>
      </trkpt>
      <trkpt lat="43.51724" lon="6.87506">
        <ele>112</ele>
        <time>2011-03-21T13:36:36Z</time>
      </trkpt>
      <trkpt lat="43.51732" lon="6.87511">
        <ele>107</ele>
        <time>2011-03-21T13:36:45Z</time>
      </trkpt>
      <trkpt lat="43.51741" lon="6.87512">
        <ele>107</ele>
        <time>2011-03-21T13:36:54Z</time>
      </trkpt>
      <trkpt lat="43.5175" lon="6.87517">
        <ele>107</ele>
        <time>2011-03-21T13:37:04Z</time>
      </trkpt>
      <trkpt lat="43.5176" lon="6.87515">
        <ele>107</ele>
        <time>2011-03-21T13:37:12Z</time>
      </trkpt>
      <trkpt lat="43.51767" lon="6.87523">
        <ele>100</ele>
        <time>2011-03-21T13:37:24Z</time>
      </trkpt>
      <trkpt lat="43.51775" lon="6.87531">
        <ele>100</ele>
        <time>2011-03-21T13:37:35Z</time>
      </trkpt>
      <trkpt lat="43.51782" lon="6.87541">
        <ele>100</ele>
        <time>2011-03-21T13:37:43Z</time>
      </trkpt>
      <trkpt lat="43.5179" lon="6.87547">
        <ele>108</ele>
        <time>2011-03-21T13:37:52Z</time>
      </trkpt>
      <trkpt lat="43.51797" lon="6.87557">
        <ele>101</ele>
        <time>2011-03-21T13:38:00Z</time>
      </trkpt>
      <trkpt lat="43.51801" lon="6.87569">
        <ele>101</ele>
        <time>2011-03-21T13:38:09Z</time>
      </trkpt>
      <trkpt lat="43.51802" lon="6.87582">
        <ele>101</ele>
        <time>2011-03-21T13:38:20Z</time>
      </trkpt>
      <trkpt lat="43.51803" lon="6.87595">
        <ele>94</ele>
        <time>2011-03-21T13:38:32Z</time>
      </trkpt>
      <trkpt lat="43.51797" lon="6.87605">
        <ele>94</ele>
        <time>2011-03-21T13:38:41Z</time>
      </trkpt>
      <trkpt lat="43.51793" lon="6.87616">
        <ele>94</ele>
        <time>2011-03-21T13:38:53Z</time>
      </trkpt>
      <trkpt lat="43.51788" lon="6.87627">
        <ele>94</ele>
        <time>2011-03-21T13:39:03Z</time>
      </trkpt>
      <trkpt lat="43.51784" lon="6.8764">
        <ele>94</ele>
        <time>2011-03-21T13:39:14Z</time>
      </trkpt>
      <trkpt lat="43.51784" lon="6.87652">
        <ele>94</ele>
        <time>2011-03-21T13:39:30Z</time>
      </trkpt>
      <trkpt lat="43.51783" lon="6.87665">
        <ele>87</ele>
        <time>2011-03-21T13:39:41Z</time>
      </trkpt>
      <trkpt lat="43.51781" lon="6.87677">
        <ele>87</ele>
        <time>2011-03-21T13:39:53Z</time>
      </trkpt>
      <trkpt lat="43.51789" lon="6.87684">
        <ele>87</ele>
        <time>2011-03-21T13:40:07Z</time>
      </trkpt>
      <trkpt lat="43.51799" lon="6.87685">
        <ele>87</ele>
        <time>2011-03-21T13:40:15Z</time>
      </trkpt>
      <trkpt lat="43.51795" lon="6.87697">
        <ele>87</ele>
        <time>2011-03-21T13:40:23Z</time>
      </trkpt>
      <trkpt lat="43.51786" lon="6.87693">
        <ele>87</ele>
        <time>2011-03-21T13:40:57Z</time>
      </trkpt>
      <trkpt lat="43.51778" lon="6.87701">
        <ele>87</ele>
        <time>2011-03-21T13:41:21Z</time>
      </trkpt>
      <trkpt lat="43.51775" lon="6.87713">
        <ele>87</ele>
        <time>2011-03-21T13:41:56Z</time>
      </trkpt>
      <trkpt lat="43.51779" lon="6.87724">
        <ele>87</ele>
        <time>2011-03-21T13:42:05Z</time>
      </trkpt>
      <trkpt lat="43.5179" lon="6.87724">
        <ele>87</ele>
        <time>2011-03-21T13:42:14Z</time>
      </trkpt>
      <trkpt lat="43.51796" lon="6.87733">
        <ele>87</ele>
        <time>2011-03-21T13:42:21Z</time>
      </trkpt>
      <trkpt lat="43.51799" lon="6.87745">
        <ele>87</ele>
        <time>2011-03-21T13:42:30Z</time>
      </trkpt>
      <trkpt lat="43.51805" lon="6.87756">
        <ele>80</ele>
        <time>2011-03-21T13:42:40Z</time>
      </trkpt>
      <trkpt lat="43.51808" lon="6.87767">
        <ele>80</ele>
        <time>2011-03-21T13:42:57Z</time>
      </trkpt>
      <trkpt lat="43.51814" lon="6.87776">
        <ele>80</ele>
        <time>2011-03-21T13:43:10Z</time>
      </trkpt>
      <trkpt lat="43.51821" lon="6.87785">
        <ele>80</ele>
        <time>2011-03-21T13:43:22Z</time>
      </trkpt>
      <trkpt lat="43.51824" lon="6.87797">
        <ele>80</ele>
        <time>2011-03-21T13:43:28Z</time>
      </trkpt>
      <trkpt lat="43.51833" lon="6.87802">
        <ele>80</ele>
        <time>2011-03-21T13:43:37Z</time>
      </trkpt>
      <trkpt lat="43.51835" lon="6.87815">
        <ele>80</ele>
        <time>2011-03-21T13:43:45Z</time>
      </trkpt>
      <trkpt lat="43.51844" lon="6.87819">
        <ele>80</ele>
        <time>2011-03-21T13:43:52Z</time>
      </trkpt>
      <trkpt lat="43.51852" lon="6.87824">
        <ele>80</ele>
        <time>2011-03-21T13:43:59Z</time>
      </trkpt>
      <trkpt lat="43.51856" lon="6.87836">
        <ele>80</ele>
        <time>2011-03-21T13:44:06Z</time>
      </trkpt>
      <trkpt lat="43.51856" lon="6.87849">
        <ele>88</ele>
        <time>2011-03-21T13:44:25Z</time>
      </trkpt>
      <trkpt lat="43.51863" lon="6.87858">
        <ele>82</ele>
        <time>2011-03-21T13:44:42Z</time>
      </trkpt>
      <trkpt lat="43.51868" lon="6.87868">
        <ele>82</ele>
        <time>2011-03-21T13:44:52Z</time>
      </trkpt>
      <trkpt lat="43.51872" lon="6.8788">
        <ele>82</ele>
        <time>2011-03-21T13:45:01Z</time>
      </trkpt>
      <trkpt lat="43.51878" lon="6.87892">
        <ele>82</ele>
        <time>2011-03-21T13:45:10Z</time>
      </trkpt>
      <trkpt lat="43.5188" lon="6.87905">
        <ele>82</ele>
        <time>2011-03-21T13:45:18Z</time>
      </trkpt>
      <trkpt lat="43.51884" lon="6.87916">
        <ele>82</ele>
        <time>2011-03-21T13:45:27Z</time>
      </trkpt>
      <trkpt lat="43.51887" lon="6.87928">
        <ele>82</ele>
        <time>2011-03-21T13:45:36Z</time>
      </trkpt>
      <trkpt lat="43.51892" lon="6.8794">
        <ele>74</ele>
        <time>2011-03-21T13:45:43Z</time>
      </trkpt>
      <trkpt lat="43.51895" lon="6.87951">
        <ele>74</ele>
        <time>2011-03-21T13:45:50Z</time>
      </trkpt>
      <trkpt lat="43.51899" lon="6.87964">
        <ele>74</ele>
        <time>2011-03-21T13:45:58Z</time>
      </trkpt>
      <trkpt lat="43.51906" lon="6.87973">
        <ele>74</ele>
        <time>2011-03-21T13:46:06Z</time>
      </trkpt>
      <trkpt lat="43.5191" lon="6.87985">
        <ele>79</ele>
        <time>2011-03-21T13:46:13Z</time>
      </trkpt>
      <trkpt lat="43.51912" lon="6.87996">
        <ele>79</ele>
        <time>2011-03-21T13:46:22Z</time>
      </trkpt>
      <trkpt lat="43.51914" lon="6.8801">
        <ele>79</ele>
        <time>2011-03-21T13:46:28Z</time>
      </trkpt>
      <trkpt lat="43.51921" lon="6.88019">
        <ele>79</ele>
        <time>2011-03-21T13:46:36Z</time>
      </trkpt>
      <trkpt lat="43.5193" lon="6.88022">
        <ele>79</ele>
        <time>2011-03-21T13:46:42Z</time>
      </trkpt>
      <trkpt lat="43.5194" lon="6.88022">
        <ele>79</ele>
        <time>2011-03-21T13:46:49Z</time>
      </trkpt>
      <trkpt lat="43.51948" lon="6.88026">
        <ele>79</ele>
        <time>2011-03-21T13:46:57Z</time>
      </trkpt>
      <trkpt lat="43.51956" lon="6.88033">
        <ele>71</ele>
        <time>2011-03-21T13:47:06Z</time>
      </trkpt>
      <trkpt lat="43.51963" lon="6.88043">
        <ele>71</ele>
        <time>2011-03-21T13:47:14Z</time>
      </trkpt>
      <trkpt lat="43.51969" lon="6.88054">
        <ele>71</ele>
        <time>2011-03-21T13:47:23Z</time>
      </trkpt>
      <trkpt lat="43.51977" lon="6.8806">
        <ele>71</ele>
        <time>2011-03-21T13:47:30Z</time>
      </trkpt>
      <trkpt lat="43.51986" lon="6.88066">
        <ele>71</ele>
        <time>2011-03-21T13:47:40Z</time>
      </trkpt>
      <trkpt lat="43.51993" lon="6.88078">
        <ele>71</ele>
        <time>2011-03-21T13:47:50Z</time>
      </trkpt>
      <trkpt lat="43.51999" lon="6.88088">
        <ele>71</ele>
        <time>2011-03-21T13:47:57Z</time>
      </trkpt>
      <trkpt lat="43.52005" lon="6.88098">
        <ele>71</ele>
        <time>2011-03-21T13:48:06Z</time>
      </trkpt>
      <trkpt lat="43.52011" lon="6.88108">
        <ele>71</ele>
        <time>2011-03-21T13:48:15Z</time>
      </trkpt>
      <trkpt lat="43.52016" lon="6.88119">
        <ele>71</ele>
        <time>2011-03-21T13:48:23Z</time>
      </trkpt>
      <trkpt lat="43.52021" lon="6.88128">
        <ele>71</ele>
        <time>2011-03-21T13:48:31Z</time>
      </trkpt>
      <trkpt lat="43.52026" lon="6.88138">
        <ele>71</ele>
        <time>2011-03-21T13:48:39Z</time>
      </trkpt>
      <trkpt lat="43.52029" lon="6.8815">
        <ele>71</ele>
        <time>2011-03-21T13:48:46Z</time>
      </trkpt>
      <trkpt lat="43.52035" lon="6.88161">
        <ele>71</ele>
        <time>2011-03-21T13:48:55Z</time>
      </trkpt>
      <trkpt lat="43.52041" lon="6.88172">
        <ele>71</ele>
        <time>2011-03-21T13:49:07Z</time>
      </trkpt>
      <trkpt lat="43.52046" lon="6.88182">
        <ele>71</ele>
        <time>2011-03-21T13:49:14Z</time>
      </trkpt>
      <trkpt lat="43.52052" lon="6.88191">
        <ele>71</ele>
        <time>2011-03-21T13:49:23Z</time>
      </trkpt>
      <trkpt lat="43.52057" lon="6.88203">
        <ele>71</ele>
        <time>2011-03-21T13:49:33Z</time>
      </trkpt>
      <trkpt lat="43.52062" lon="6.88214">
        <ele>71</ele>
        <time>2011-03-21T13:49:40Z</time>
      </trkpt>
      <trkpt lat="43.52067" lon="6.88225">
        <ele>71</ele>
        <time>2011-03-21T13:49:48Z</time>
      </trkpt>
      <trkpt lat="43.52071" lon="6.88235">
        <ele>71</ele>
        <time>2011-03-21T13:49:56Z</time>
      </trkpt>
      <trkpt lat="43.52073" lon="6.88248">
        <ele>71</ele>
        <time>2011-03-21T13:50:05Z</time>
      </trkpt>
      <trkpt lat="43.52075" lon="6.88261">
        <ele>71</ele>
        <time>2011-03-21T13:50:15Z</time>
      </trkpt>
      <trkpt lat="43.52079" lon="6.88272">
        <ele>71</ele>
        <time>2011-03-21T13:50:23Z</time>
      </trkpt>
      <trkpt lat="43.52082" lon="6.88286">
        <ele>71</ele>
        <time>2011-03-21T13:50:29Z</time>
      </trkpt>
      <trkpt lat="43.5209" lon="6.88289">
        <ele>71</ele>
        <time>2011-03-21T13:50:37Z</time>
      </trkpt>
      <trkpt lat="43.52095" lon="6.88301">
        <ele>71</ele>
        <time>2011-03-21T13:50:45Z</time>
      </trkpt>
      <trkpt lat="43.52099" lon="6.88313">
        <ele>71</ele>
        <time>2011-03-21T13:50:54Z</time>
      </trkpt>
      <trkpt lat="43.52106" lon="6.88321">
        <ele>71</ele>
        <time>2011-03-21T13:51:04Z</time>
      </trkpt>
      <trkpt lat="43.52111" lon="6.88331">
        <ele>71</ele>
        <time>2011-03-21T13:51:15Z</time>
      </trkpt>
      <trkpt lat="43.52113" lon="6.88345">
        <ele>71</ele>
        <time>2011-03-21T13:51:34Z</time>
      </trkpt>
      <trkpt lat="43.52109" lon="6.88357">
        <ele>71</ele>
        <time>2011-03-21T13:51:38Z</time>
      </trkpt>
      <trkpt lat="43.52107" lon="6.88369">
        <ele>71</ele>
        <time>2011-03-21T13:51:50Z</time>
      </trkpt>
      <trkpt lat="43.52099" lon="6.88375">
        <ele>71</ele>
        <time>2011-03-21T13:52:01Z</time>
      </trkpt>
      <trkpt lat="43.52092" lon="6.88383">
        <ele>71</ele>
        <time>2011-03-21T13:52:11Z</time>
      </trkpt>
      <trkpt lat="43.52085" lon="6.88391">
        <ele>71</ele>
        <time>2011-03-21T13:52:20Z</time>
      </trkpt>
      <trkpt lat="43.52077" lon="6.88399">
        <ele>71</ele>
        <time>2011-03-21T13:52:37Z</time>
      </trkpt>
      <trkpt lat="43.52072" lon="6.88409">
        <ele>71</ele>
        <time>2011-03-21T13:52:43Z</time>
      </trkpt>
      <trkpt lat="43.52065" lon="6.88419">
        <ele>65</ele>
        <time>2011-03-21T13:52:53Z</time>
      </trkpt>
      <trkpt lat="43.52062" lon="6.88432">
        <ele>65</ele>
        <time>2011-03-21T13:53:01Z</time>
      </trkpt>
      <trkpt lat="43.52063" lon="6.88446">
        <ele>65</ele>
        <time>2011-03-21T13:53:11Z</time>
      </trkpt>
      <trkpt lat="43.52063" lon="6.8846">
        <ele>59</ele>
        <time>2011-03-21T13:53:20Z</time>
      </trkpt>
      <trkpt lat="43.5206" lon="6.88474">
        <ele>59</ele>
        <time>2011-03-21T13:53:30Z</time>
      </trkpt>
      <trkpt lat="43.5206" lon="6.88488">
        <ele>59</ele>
        <time>2011-03-21T13:53:39Z</time>
      </trkpt>
      <trkpt lat="43.5206" lon="6.885">
        <ele>59</ele>
        <time>2011-03-21T13:53:46Z</time>
      </trkpt>
      <trkpt lat="43.52061" lon="6.88515">
        <ele>59</ele>
        <time>2011-03-21T13:53:58Z</time>
      </trkpt>
      <trkpt lat="43.52062" lon="6.88527">
        <ele>67</ele>
        <time>2011-03-21T13:54:06Z</time>
      </trkpt>
      <trkpt lat="43.52065" lon="6.88539">
        <ele>67</ele>
        <time>2011-03-21T13:54:15Z</time>
      </trkpt>
      <trkpt lat="43.52063" lon="6.88552">
        <ele>67</ele>
        <time>2011-03-21T13:54:24Z</time>
      </trkpt>
      <trkpt lat="43.5206" lon="6.88564">
        <ele>67</ele>
        <time>2011-03-21T13:54:30Z</time>
      </trkpt>
      <trkpt lat="43.52063" lon="6.88578">
        <ele>59</ele>
        <time>2011-03-21T13:54:45Z</time>
      </trkpt>
      <trkpt lat="43.52064" lon="6.88591">
        <ele>59</ele>
        <time>2011-03-21T13:54:51Z</time>
      </trkpt>
      <trkpt lat="43.52065" lon="6.88604">
        <ele>59</ele>
        <time>2011-03-21T13:55:01Z</time>
      </trkpt>
      <trkpt lat="43.52063" lon="6.88615">
        <ele>59</ele>
        <time>2011-03-21T13:55:13Z</time>
      </trkpt>
      <trkpt lat="43.52055" lon="6.88622">
        <ele>59</ele>
        <time>2011-03-21T13:55:24Z</time>
      </trkpt>
      <trkpt lat="43.52046" lon="6.88627">
        <ele>65</ele>
        <time>2011-03-21T13:55:33Z</time>
      </trkpt>
      <trkpt lat="43.52039" lon="6.88637">
        <ele>65</ele>
        <time>2011-03-21T13:55:42Z</time>
      </trkpt>
      <trkpt lat="43.5203" lon="6.88645">
        <ele>65</ele>
        <time>2011-03-21T13:55:48Z</time>
      </trkpt>
      <trkpt lat="43.52023" lon="6.88652">
        <ele>65</ele>
        <time>2011-03-21T13:55:58Z</time>
      </trkpt>
      <trkpt lat="43.52018" lon="6.88665">
        <ele>65</ele>
        <time>2011-03-21T13:56:07Z</time>
      </trkpt>
      <trkpt lat="43.52018" lon="6.88678">
        <ele>65</ele>
        <time>2011-03-21T13:56:15Z</time>
      </trkpt>
      <trkpt lat="43.5202" lon="6.88691">
        <ele>65</ele>
        <time>2011-03-21T13:56:23Z</time>
      </trkpt>
      <trkpt lat="43.52029" lon="6.88702">
        <ele>65</ele>
        <time>2011-03-21T13:56:34Z</time>
      </trkpt>
      <trkpt lat="43.52037" lon="6.8871">
        <ele>65</ele>
        <time>2011-03-21T13:56:40Z</time>
      </trkpt>
      <trkpt lat="43.52045" lon="6.88718">
        <ele>70</ele>
        <time>2011-03-21T13:56:47Z</time>
      </trkpt>
      <trkpt lat="43.52049" lon="6.88729">
        <ele>70</ele>
        <time>2011-03-21T13:57:02Z</time>
      </trkpt>
      <trkpt lat="43.5205" lon="6.88742">
        <ele>65</ele>
        <time>2011-03-21T13:57:12Z</time>
      </trkpt>
      <trkpt lat="43.52054" lon="6.88753">
        <ele>65</ele>
        <time>2011-03-21T13:57:21Z</time>
      </trkpt>
      <trkpt lat="43.52056" lon="6.88766">
        <ele>65</ele>
        <time>2011-03-21T13:57:31Z</time>
      </trkpt>
      <trkpt lat="43.52058" lon="6.88779">
        <ele>58</ele>
        <time>2011-03-21T13:57:40Z</time>
      </trkpt>
      <trkpt lat="43.52058" lon="6.88793">
        <ele>58</ele>
        <time>2011-03-21T13:57:46Z</time>
      </trkpt>
      <trkpt lat="43.52062" lon="6.88806">
        <ele>58</ele>
        <time>2011-03-21T13:57:55Z</time>
      </trkpt>
      <trkpt lat="43.5207" lon="6.88813">
        <ele>58</ele>
        <time>2011-03-21T13:58:06Z</time>
      </trkpt>
      <trkpt lat="43.52073" lon="6.88825">
        <ele>58</ele>
        <time>2011-03-21T13:58:17Z</time>
      </trkpt>
      <trkpt lat="43.52075" lon="6.88838">
        <ele>58</ele>
        <time>2011-03-21T13:58:27Z</time>
      </trkpt>
      <trkpt lat="43.52079" lon="6.88851">
        <ele>58</ele>
        <time>2011-03-21T13:58:35Z</time>
      </trkpt>
      <trkpt lat="43.52081" lon="6.88862">
        <ele>58</ele>
        <time>2011-03-21T13:58:42Z</time>
      </trkpt>
      <trkpt lat="43.5208" lon="6.88875">
        <ele>58</ele>
        <time>2011-03-21T13:58:48Z</time>
      </trkpt>
      <trkpt lat="43.52087" lon="6.88884">
        <ele>58</ele>
        <time>2011-03-21T13:58:57Z</time>
      </trkpt>
      <trkpt lat="43.52092" lon="6.88894">
        <ele>58</ele>
        <time>2011-03-21T13:59:05Z</time>
      </trkpt>
      <trkpt lat="43.52097" lon="6.88904">
        <ele>58</ele>
        <time>2011-03-21T13:59:13Z</time>
      </trkpt>
      <trkpt lat="43.52098" lon="6.88917">
        <ele>58</ele>
        <time>2011-03-21T13:59:21Z</time>
      </trkpt>
      <trkpt lat="43.52101" lon="6.88929">
        <ele>58</ele>
        <time>2011-03-21T13:59:29Z</time>
      </trkpt>
      <trkpt lat="43.52107" lon="6.8894">
        <ele>58</ele>
        <time>2011-03-21T13:59:36Z</time>
      </trkpt>
      <trkpt lat="43.52107" lon="6.88953">
        <ele>58</ele>
        <time>2011-03-21T13:59:43Z</time>
      </trkpt>
      <trkpt lat="43.52109" lon="6.88965">
        <ele>58</ele>
        <time>2011-03-21T13:59:50Z</time>
      </trkpt>
      <trkpt lat="43.52111" lon="6.88977">
        <ele>58</ele>
        <time>2011-03-21T13:59:58Z</time>
      </trkpt>
      <trkpt lat="43.52113" lon="6.8899">
        <ele>52</ele>
        <time>2011-03-21T14:00:06Z</time>
      </trkpt>
      <trkpt lat="43.52113" lon="6.89004">
        <ele>52</ele>
        <time>2011-03-21T14:00:16Z</time>
      </trkpt>
      <trkpt lat="43.52115" lon="6.89017">
        <ele>52</ele>
        <time>2011-03-21T14:00:24Z</time>
      </trkpt>
      <trkpt lat="43.52118" lon="6.8903">
        <ele>47</ele>
        <time>2011-03-21T14:00:33Z</time>
      </trkpt>
      <trkpt lat="43.52118" lon="6.89044">
        <ele>47</ele>
        <time>2011-03-21T14:00:41Z</time>
      </trkpt>
      <trkpt lat="43.52126" lon="6.89053">
        <ele>47</ele>
        <time>2011-03-21T14:00:50Z</time>
      </trkpt>
      <trkpt lat="43.52126" lon="6.89065">
        <ele>47</ele>
        <time>2011-03-21T14:00:59Z</time>
      </trkpt>
      <trkpt lat="43.52133" lon="6.89074">
        <ele>47</ele>
        <time>2011-03-21T14:01:07Z</time>
      </trkpt>
      <trkpt lat="43.52138" lon="6.89085">
        <ele>47</ele>
        <time>2011-03-21T14:01:17Z</time>
      </trkpt>
      <trkpt lat="43.52138" lon="6.89098">
        <ele>47</ele>
        <time>2011-03-21T14:01:25Z</time>
      </trkpt>
      <trkpt lat="43.52136" lon="6.89111">
        <ele>47</ele>
        <time>2011-03-21T14:01:33Z</time>
      </trkpt>
      <trkpt lat="43.52135" lon="6.89124">
        <ele>47</ele>
        <time>2011-03-21T14:01:43Z</time>
      </trkpt>
      <trkpt lat="43.52133" lon="6.89139">
        <ele>47</ele>
        <time>2011-03-21T14:01:52Z</time>
      </trkpt>
      <trkpt lat="43.52133" lon="6.89152">
        <ele>47</ele>
        <time>2011-03-21T14:02:01Z</time>
      </trkpt>
      <trkpt lat="43.52132" lon="6.89165">
        <ele>47</ele>
        <time>2011-03-21T14:02:09Z</time>
      </trkpt>
      <trkpt lat="43.52132" lon="6.89179">
        <ele>47</ele>
        <time>2011-03-21T14:02:18Z</time>
      </trkpt>
      <trkpt lat="43.52132" lon="6.89192">
        <ele>47</ele>
        <time>2011-03-21T14:02:27Z</time>
      </trkpt>
      <trkpt lat="43.52131" lon="6.89206">
        <ele>47</ele>
        <time>2011-03-21T14:02:35Z</time>
      </trkpt>
      <trkpt lat="43.52129" lon="6.89218">
        <ele>47</ele>
        <time>2011-03-21T14:02:41Z</time>
      </trkpt>
      <trkpt lat="43.52127" lon="6.89231">
        <ele>47</ele>
        <time>2011-03-21T14:02:47Z</time>
      </trkpt>
      <trkpt lat="43.52128" lon="6.89243">
        <ele>47</ele>
        <time>2011-03-21T14:02:57Z</time>
      </trkpt>
      <trkpt lat="43.52133" lon="6.89258">
        <ele>47</ele>
        <time>2011-03-21T14:03:09Z</time>
      </trkpt>
      <trkpt lat="43.52131" lon="6.89271">
        <ele>47</ele>
        <time>2011-03-21T14:03:14Z</time>
      </trkpt>
      <trkpt lat="43.52135" lon="6.89283">
        <ele>47</ele>
        <time>2011-03-21T14:03:23Z</time>
      </trkpt>
      <trkpt lat="43.52141" lon="6.89293">
        <ele>47</ele>
        <time>2011-03-21T14:03:31Z</time>
      </trkpt>
      <trkpt lat="43.52148" lon="6.89303">
        <ele>47</ele>
        <time>2011-03-21T14:03:40Z</time>
      </trkpt>
      <trkpt lat="43.52154" lon="6.89313">
        <ele>41</ele>
        <time>2011-03-21T14:03:49Z</time>
      </trkpt>
      <trkpt lat="43.52159" lon="6.89324">
        <ele>41</ele>
        <time>2011-03-21T14:03:57Z</time>
      </trkpt>
      <trkpt lat="43.52164" lon="6.89335">
        <ele>41</ele>
        <time>2011-03-21T14:04:06Z</time>
      </trkpt>
      <trkpt lat="43.52171" lon="6.89343">
        <ele>41</ele>
        <time>2011-03-21T14:04:14Z</time>
      </trkpt>
      <trkpt lat="43.5218" lon="6.89351">
        <ele>41</ele>
        <time>2011-03-21T14:04:21Z</time>
      </trkpt>
      <trkpt lat="43.5218" lon="6.89364">
        <ele>41</ele>
        <time>2011-03-21T14:04:30Z</time>
      </trkpt>
      <trkpt lat="43.5219" lon="6.89368">
        <ele>41</ele>
        <time>2011-03-21T14:04:39Z</time>
      </trkpt>
      <trkpt lat="43.52194" lon="6.8938">
        <ele>41</ele>
        <time>2011-03-21T14:04:51Z</time>
      </trkpt>
      <trkpt lat="43.52201" lon="6.89391">
        <ele>41</ele>
        <time>2011-03-21T14:05:01Z</time>
      </trkpt>
      <trkpt lat="43.52205" lon="6.89403">
        <ele>41</ele>
        <time>2011-03-21T14:05:11Z</time>
      </trkpt>
      <trkpt lat="43.52207" lon="6.89417">
        <ele>41</ele>
        <time>2011-03-21T14:05:21Z</time>
      </trkpt>
      <trkpt lat="43.5221" lon="6.89428">
        <ele>41</ele>
        <time>2011-03-21T14:05:29Z</time>
      </trkpt>
      <trkpt lat="43.52213" lon="6.8944">
        <ele>41</ele>
        <time>2011-03-21T14:05:37Z</time>
      </trkpt>
      <trkpt lat="43.52216" lon="6.89453">
        <ele>41</ele>
        <time>2011-03-21T14:05:45Z</time>
      </trkpt>
      <trkpt lat="43.52224" lon="6.89462">
        <ele>41</ele>
        <time>2011-03-21T14:05:56Z</time>
      </trkpt>
      <trkpt lat="43.5223" lon="6.89471">
        <ele>41</ele>
        <time>2011-03-21T14:06:02Z</time>
      </trkpt>
      <trkpt lat="43.52239" lon="6.89476">
        <ele>41</ele>
        <time>2011-03-21T14:06:11Z</time>
      </trkpt>
      <trkpt lat="43.52241" lon="6.89488">
        <ele>48</ele>
        <time>2011-03-21T14:06:20Z</time>
      </trkpt>
      <trkpt lat="43.52238" lon="6.895">
        <ele>48</ele>
        <time>2011-03-21T14:06:26Z</time>
      </trkpt>
      <trkpt lat="43.52244" lon="6.89511">
        <ele>43</ele>
        <time>2011-03-21T14:06:34Z</time>
      </trkpt>
      <trkpt lat="43.52253" lon="6.89514">
        <ele>43</ele>
        <time>2011-03-21T14:06:42Z</time>
      </trkpt>
      <trkpt lat="43.52262" lon="6.89521">
        <ele>43</ele>
        <time>2011-03-21T14:06:49Z</time>
      </trkpt>
      <trkpt lat="43.52267" lon="6.89532">
        <ele>43</ele>
        <time>2011-03-21T14:06:56Z</time>
      </trkpt>
      <trkpt lat="43.52278" lon="6.89533">
        <ele>43</ele>
        <time>2011-03-21T14:07:01Z</time>
      </trkpt>
      <trkpt lat="43.52287" lon="6.89534">
        <ele>43</ele>
        <time>2011-03-21T14:07:08Z</time>
      </trkpt>
      <trkpt lat="43.52296" lon="6.89531">
        <ele>43</ele>
        <time>2011-03-21T14:07:18Z</time>
      </trkpt>
    </trkseg>
  </trk>
</gpx>